<?xml version="1.0" encoding="UTF-8" standalone="no" ?>
<gpx xmlns="http://www.topografix.com/GPX/1/1" xmlns:xsi="http://www.w3.org/2001/XMLSchema-instance" xsi:schemaLocation="http://www.topografix.com/GPX/1/1 http://www.topografix.com/GPX/1/1/gpx.xsd" version="1.1" creator="VisuGPX - https://www.visugpx.com">
  <metadata>
    <name>Parcours VTT Col de mon Repos</name>
    <desc><![CDATA[Toute petite trace VTT pou se mettre en jambe]]></desc>
  </metadata>
  <trk>
    <name><![CDATA[Tracé actuel: 09 AVR 2022 11:46]]></name>
    <extensions>
      <line xmlns="http://www.topografix.com/GPX/gpx_style/0/2">
        <color>0000FF</color>
        <width>4</width>
      </line>
    </extensions>
    <trkseg>
      <trkpt lat="48.28812" lon="6.78314">
        <ele>499.06</ele>
        <time>2022-04-09T12:10:43Z</time>
      </trkpt>
      <trkpt lat="48.28816" lon="6.78325">
        <ele>499.06</ele>
        <time>2022-04-09T12:10:46Z</time>
      </trkpt>
      <trkpt lat="48.28827" lon="6.78335">
        <ele>502.43</ele>
        <time>2022-04-09T12:10:54Z</time>
      </trkpt>
      <trkpt lat="48.28827" lon="6.78338">
        <ele>505.31</ele>
        <time>2022-04-09T12:10:57Z</time>
      </trkpt>
      <trkpt lat="48.28825" lon="6.78351">
        <ele>509.64</ele>
        <time>2022-04-09T12:11:02Z</time>
      </trkpt>
      <trkpt lat="48.28824" lon="6.7836">
        <ele>511.08</ele>
        <time>2022-04-09T12:11:04Z</time>
      </trkpt>
      <trkpt lat="48.28821" lon="6.78387">
        <ele>513.48</ele>
        <time>2022-04-09T12:11:09Z</time>
      </trkpt>
      <trkpt lat="48.28821" lon="6.78394">
        <ele>513.96</ele>
        <time>2022-04-09T12:11:10Z</time>
      </trkpt>
      <trkpt lat="48.2882" lon="6.784">
        <ele>513.96</ele>
        <time>2022-04-09T12:11:11Z</time>
      </trkpt>
      <trkpt lat="48.28818" lon="6.78407">
        <ele>513</ele>
        <time>2022-04-09T12:11:12Z</time>
      </trkpt>
      <trkpt lat="48.28816" lon="6.78414">
        <ele>513</ele>
        <time>2022-04-09T12:11:13Z</time>
      </trkpt>
      <trkpt lat="48.28814" lon="6.7842">
        <ele>515.4</ele>
        <time>2022-04-09T12:11:14Z</time>
      </trkpt>
      <trkpt lat="48.28812" lon="6.78426">
        <ele>515.4</ele>
        <time>2022-04-09T12:11:15Z</time>
      </trkpt>
      <trkpt lat="48.2881" lon="6.78433">
        <ele>515.88</ele>
        <time>2022-04-09T12:11:16Z</time>
      </trkpt>
      <trkpt lat="48.28809" lon="6.7844">
        <ele>515.88</ele>
        <time>2022-04-09T12:11:17Z</time>
      </trkpt>
      <trkpt lat="48.28808" lon="6.78447">
        <ele>516.85</ele>
        <time>2022-04-09T12:11:18Z</time>
      </trkpt>
      <trkpt lat="48.28809" lon="6.78454">
        <ele>516.85</ele>
        <time>2022-04-09T12:11:19Z</time>
      </trkpt>
      <trkpt lat="48.28809" lon="6.78461">
        <ele>517.33</ele>
        <time>2022-04-09T12:11:20Z</time>
      </trkpt>
      <trkpt lat="48.2881" lon="6.78468">
        <ele>517.33</ele>
        <time>2022-04-09T12:11:21Z</time>
      </trkpt>
      <trkpt lat="48.28813" lon="6.78477">
        <ele>516.85</ele>
        <time>2022-04-09T12:11:22Z</time>
      </trkpt>
      <trkpt lat="48.28822" lon="6.78501">
        <ele>516.85</ele>
        <time>2022-04-09T12:11:25Z</time>
      </trkpt>
      <trkpt lat="48.28828" lon="6.78514">
        <ele>516.85</ele>
        <time>2022-04-09T12:11:27Z</time>
      </trkpt>
      <trkpt lat="48.28832" lon="6.78519">
        <ele>516.37</ele>
        <time>2022-04-09T12:11:28Z</time>
      </trkpt>
      <trkpt lat="48.28836" lon="6.78523">
        <ele>516.85</ele>
        <time>2022-04-09T12:11:29Z</time>
      </trkpt>
      <trkpt lat="48.28849" lon="6.78533">
        <ele>516.85</ele>
        <time>2022-04-09T12:11:32Z</time>
      </trkpt>
      <trkpt lat="48.28858" lon="6.78538">
        <ele>516.37</ele>
        <time>2022-04-09T12:11:34Z</time>
      </trkpt>
      <trkpt lat="48.28863" lon="6.78538">
        <ele>516.85</ele>
        <time>2022-04-09T12:11:35Z</time>
      </trkpt>
      <trkpt lat="48.28866" lon="6.7854">
        <ele>516.85</ele>
        <time>2022-04-09T12:11:36Z</time>
      </trkpt>
      <trkpt lat="48.28907" lon="6.7855">
        <ele>516.37</ele>
        <time>2022-04-09T12:11:43Z</time>
      </trkpt>
      <trkpt lat="48.28914" lon="6.78551">
        <ele>516.37</ele>
        <time>2022-04-09T12:11:44Z</time>
      </trkpt>
      <trkpt lat="48.2892" lon="6.78553">
        <ele>516.37</ele>
        <time>2022-04-09T12:11:45Z</time>
      </trkpt>
      <trkpt lat="48.28934" lon="6.78555">
        <ele>515.88</ele>
        <time>2022-04-09T12:11:47Z</time>
      </trkpt>
      <trkpt lat="48.28941" lon="6.78555">
        <ele>515.4</ele>
        <time>2022-04-09T12:11:48Z</time>
      </trkpt>
      <trkpt lat="48.28968" lon="6.78559">
        <ele>513.96</ele>
        <time>2022-04-09T12:11:52Z</time>
      </trkpt>
      <trkpt lat="48.28976" lon="6.78557">
        <ele>513.96</ele>
        <time>2022-04-09T12:11:53Z</time>
      </trkpt>
      <trkpt lat="48.28984" lon="6.78555">
        <ele>513.96</ele>
        <time>2022-04-09T12:11:54Z</time>
      </trkpt>
      <trkpt lat="48.28991" lon="6.78553">
        <ele>514.44</ele>
        <time>2022-04-09T12:11:55Z</time>
      </trkpt>
      <trkpt lat="48.2901" lon="6.78545">
        <ele>513.96</ele>
        <time>2022-04-09T12:11:58Z</time>
      </trkpt>
      <trkpt lat="48.29024" lon="6.78541">
        <ele>513.96</ele>
        <time>2022-04-09T12:12:01Z</time>
      </trkpt>
      <trkpt lat="48.29028" lon="6.78543">
        <ele>514.44</ele>
        <time>2022-04-09T12:12:02Z</time>
      </trkpt>
      <trkpt lat="48.29039" lon="6.78548">
        <ele>514.92</ele>
        <time>2022-04-09T12:12:05Z</time>
      </trkpt>
      <trkpt lat="48.29043" lon="6.7855">
        <ele>515.4</ele>
        <time>2022-04-09T12:12:07Z</time>
      </trkpt>
      <trkpt lat="48.29046" lon="6.78559">
        <ele>517.81</ele>
        <time>2022-04-09T12:12:12Z</time>
      </trkpt>
      <trkpt lat="48.29046" lon="6.78561">
        <ele>518.29</ele>
        <time>2022-04-09T12:12:13Z</time>
      </trkpt>
      <trkpt lat="48.29047" lon="6.78565">
        <ele>519.25</ele>
        <time>2022-04-09T12:12:16Z</time>
      </trkpt>
      <trkpt lat="48.29047" lon="6.7857">
        <ele>520.21</ele>
        <time>2022-04-09T12:12:19Z</time>
      </trkpt>
      <trkpt lat="48.29046" lon="6.78571">
        <ele>521.17</ele>
        <time>2022-04-09T12:12:20Z</time>
      </trkpt>
      <trkpt lat="48.29049" lon="6.78575">
        <ele>521.65</ele>
        <time>2022-04-09T12:12:24Z</time>
      </trkpt>
      <trkpt lat="48.29059" lon="6.78591">
        <ele>525.5</ele>
        <time>2022-04-09T12:12:34Z</time>
      </trkpt>
      <trkpt lat="48.2906" lon="6.78594">
        <ele>525.98</ele>
        <time>2022-04-09T12:12:36Z</time>
      </trkpt>
      <trkpt lat="48.29062" lon="6.78596">
        <ele>526.46</ele>
        <time>2022-04-09T12:12:37Z</time>
      </trkpt>
      <trkpt lat="48.29077" lon="6.78626">
        <ele>529.34</ele>
        <time>2022-04-09T12:12:51Z</time>
      </trkpt>
      <trkpt lat="48.29078" lon="6.78635">
        <ele>530.3</ele>
        <time>2022-04-09T12:12:54Z</time>
      </trkpt>
      <trkpt lat="48.2908" lon="6.78637">
        <ele>530.3</ele>
        <time>2022-04-09T12:12:55Z</time>
      </trkpt>
      <trkpt lat="48.29082" lon="6.78639">
        <ele>530.3</ele>
        <time>2022-04-09T12:12:56Z</time>
      </trkpt>
      <trkpt lat="48.29084" lon="6.7864">
        <ele>530.79</ele>
        <time>2022-04-09T12:12:57Z</time>
      </trkpt>
      <trkpt lat="48.29084" lon="6.78643">
        <ele>531.27</ele>
        <time>2022-04-09T12:12:58Z</time>
      </trkpt>
      <trkpt lat="48.29083" lon="6.78648">
        <ele>531.27</ele>
        <time>2022-04-09T12:12:59Z</time>
      </trkpt>
      <trkpt lat="48.29082" lon="6.78652">
        <ele>531.75</ele>
        <time>2022-04-09T12:13:00Z</time>
      </trkpt>
      <trkpt lat="48.29083" lon="6.78655">
        <ele>532.23</ele>
        <time>2022-04-09T12:13:01Z</time>
      </trkpt>
      <trkpt lat="48.29083" lon="6.78658">
        <ele>532.23</ele>
        <time>2022-04-09T12:13:02Z</time>
      </trkpt>
      <trkpt lat="48.29091" lon="6.78674">
        <ele>533.19</ele>
        <time>2022-04-09T12:13:10Z</time>
      </trkpt>
      <trkpt lat="48.29091" lon="6.78695">
        <ele>533.67</ele>
        <time>2022-04-09T12:13:18Z</time>
      </trkpt>
      <trkpt lat="48.2909" lon="6.78707">
        <ele>533.67</ele>
        <time>2022-04-09T12:13:21Z</time>
      </trkpt>
      <trkpt lat="48.29094" lon="6.78722">
        <ele>533.19</ele>
        <time>2022-04-09T12:13:26Z</time>
      </trkpt>
      <trkpt lat="48.2909" lon="6.78777">
        <ele>532.23</ele>
        <time>2022-04-09T12:13:35Z</time>
      </trkpt>
      <trkpt lat="48.2909" lon="6.78785">
        <ele>532.23</ele>
        <time>2022-04-09T12:13:36Z</time>
      </trkpt>
      <trkpt lat="48.29088" lon="6.78789">
        <ele>532.23</ele>
        <time>2022-04-09T12:13:37Z</time>
      </trkpt>
      <trkpt lat="48.29087" lon="6.78795">
        <ele>532.23</ele>
        <time>2022-04-09T12:13:38Z</time>
      </trkpt>
      <trkpt lat="48.29083" lon="6.78843">
        <ele>532.23</ele>
        <time>2022-04-09T12:13:46Z</time>
      </trkpt>
      <trkpt lat="48.29074" lon="6.78876">
        <ele>532.71</ele>
        <time>2022-04-09T12:13:55Z</time>
      </trkpt>
      <trkpt lat="48.29066" lon="6.78893">
        <ele>533.19</ele>
        <time>2022-04-09T12:13:58Z</time>
      </trkpt>
      <trkpt lat="48.29062" lon="6.78897">
        <ele>533.67</ele>
        <time>2022-04-09T12:13:59Z</time>
      </trkpt>
      <trkpt lat="48.29029" lon="6.78907">
        <ele>534.63</ele>
        <time>2022-04-09T12:14:09Z</time>
      </trkpt>
      <trkpt lat="48.2902" lon="6.78905">
        <ele>535.11</ele>
        <time>2022-04-09T12:14:12Z</time>
      </trkpt>
      <trkpt lat="48.29017" lon="6.78904">
        <ele>535.59</ele>
        <time>2022-04-09T12:14:13Z</time>
      </trkpt>
      <trkpt lat="48.29014" lon="6.78903">
        <ele>535.11</ele>
        <time>2022-04-09T12:14:14Z</time>
      </trkpt>
      <trkpt lat="48.28979" lon="6.78892">
        <ele>535.11</ele>
        <time>2022-04-09T12:14:26Z</time>
      </trkpt>
      <trkpt lat="48.28975" lon="6.78891">
        <ele>534.63</ele>
        <time>2022-04-09T12:14:27Z</time>
      </trkpt>
      <trkpt lat="48.28972" lon="6.7889">
        <ele>535.11</ele>
        <time>2022-04-09T12:14:28Z</time>
      </trkpt>
      <trkpt lat="48.28954" lon="6.78873">
        <ele>534.15</ele>
        <time>2022-04-09T12:14:34Z</time>
      </trkpt>
      <trkpt lat="48.28949" lon="6.78873">
        <ele>534.15</ele>
        <time>2022-04-09T12:14:35Z</time>
      </trkpt>
      <trkpt lat="48.28944" lon="6.78871">
        <ele>534.15</ele>
        <time>2022-04-09T12:14:36Z</time>
      </trkpt>
      <trkpt lat="48.28941" lon="6.78868">
        <ele>534.15</ele>
        <time>2022-04-09T12:14:37Z</time>
      </trkpt>
      <trkpt lat="48.28924" lon="6.78856">
        <ele>533.67</ele>
        <time>2022-04-09T12:14:42Z</time>
      </trkpt>
      <trkpt lat="48.2892" lon="6.78853">
        <ele>533.67</ele>
        <time>2022-04-09T12:14:43Z</time>
      </trkpt>
      <trkpt lat="48.28915" lon="6.78851">
        <ele>533.67</ele>
        <time>2022-04-09T12:14:44Z</time>
      </trkpt>
      <trkpt lat="48.28887" lon="6.78836">
        <ele>533.19</ele>
        <time>2022-04-09T12:14:51Z</time>
      </trkpt>
      <trkpt lat="48.28884" lon="6.78834">
        <ele>533.19</ele>
        <time>2022-04-09T12:14:52Z</time>
      </trkpt>
      <trkpt lat="48.2888" lon="6.78833">
        <ele>532.71</ele>
        <time>2022-04-09T12:14:53Z</time>
      </trkpt>
      <trkpt lat="48.28877" lon="6.78833">
        <ele>533.19</ele>
        <time>2022-04-09T12:14:54Z</time>
      </trkpt>
      <trkpt lat="48.28873" lon="6.78833">
        <ele>533.19</ele>
        <time>2022-04-09T12:14:55Z</time>
      </trkpt>
      <trkpt lat="48.28868" lon="6.78832">
        <ele>533.19</ele>
        <time>2022-04-09T12:14:56Z</time>
      </trkpt>
      <trkpt lat="48.28864" lon="6.78833">
        <ele>532.71</ele>
        <time>2022-04-09T12:14:57Z</time>
      </trkpt>
      <trkpt lat="48.2886" lon="6.78835">
        <ele>532.71</ele>
        <time>2022-04-09T12:14:58Z</time>
      </trkpt>
      <trkpt lat="48.28856" lon="6.78837">
        <ele>532.23</ele>
        <time>2022-04-09T12:14:59Z</time>
      </trkpt>
      <trkpt lat="48.28846" lon="6.7884">
        <ele>532.23</ele>
        <time>2022-04-09T12:15:01Z</time>
      </trkpt>
      <trkpt lat="48.28841" lon="6.7884">
        <ele>531.75</ele>
        <time>2022-04-09T12:15:02Z</time>
      </trkpt>
      <trkpt lat="48.28816" lon="6.7884">
        <ele>531.75</ele>
        <time>2022-04-09T12:15:07Z</time>
      </trkpt>
      <trkpt lat="48.28813" lon="6.78844">
        <ele>531.75</ele>
        <time>2022-04-09T12:15:08Z</time>
      </trkpt>
      <trkpt lat="48.28783" lon="6.78877">
        <ele>533.19</ele>
        <time>2022-04-09T12:15:19Z</time>
      </trkpt>
      <trkpt lat="48.28774" lon="6.7888">
        <ele>534.15</ele>
        <time>2022-04-09T12:15:22Z</time>
      </trkpt>
      <trkpt lat="48.28771" lon="6.78882">
        <ele>534.15</ele>
        <time>2022-04-09T12:15:23Z</time>
      </trkpt>
      <trkpt lat="48.28752" lon="6.789">
        <ele>535.11</ele>
        <time>2022-04-09T12:15:32Z</time>
      </trkpt>
      <trkpt lat="48.28733" lon="6.78911">
        <ele>535.11</ele>
        <time>2022-04-09T12:15:38Z</time>
      </trkpt>
      <trkpt lat="48.28727" lon="6.78913">
        <ele>535.59</ele>
        <time>2022-04-09T12:15:40Z</time>
      </trkpt>
      <trkpt lat="48.28723" lon="6.78916">
        <ele>535.59</ele>
        <time>2022-04-09T12:15:41Z</time>
      </trkpt>
      <trkpt lat="48.28703" lon="6.78939">
        <ele>535.59</ele>
        <time>2022-04-09T12:15:47Z</time>
      </trkpt>
      <trkpt lat="48.28701" lon="6.78943">
        <ele>535.59</ele>
        <time>2022-04-09T12:15:48Z</time>
      </trkpt>
      <trkpt lat="48.28701" lon="6.78948">
        <ele>535.59</ele>
        <time>2022-04-09T12:15:49Z</time>
      </trkpt>
      <trkpt lat="48.28702" lon="6.78953">
        <ele>536.07</ele>
        <time>2022-04-09T12:15:50Z</time>
      </trkpt>
      <trkpt lat="48.28703" lon="6.78958">
        <ele>535.59</ele>
        <time>2022-04-09T12:15:51Z</time>
      </trkpt>
      <trkpt lat="48.28705" lon="6.78963">
        <ele>535.59</ele>
        <time>2022-04-09T12:15:52Z</time>
      </trkpt>
      <trkpt lat="48.28706" lon="6.78968">
        <ele>536.07</ele>
        <time>2022-04-09T12:15:53Z</time>
      </trkpt>
      <trkpt lat="48.28726" lon="6.79016">
        <ele>536.55</ele>
        <time>2022-04-09T12:16:04Z</time>
      </trkpt>
      <trkpt lat="48.28743" lon="6.79058">
        <ele>536.07</ele>
        <time>2022-04-09T12:16:14Z</time>
      </trkpt>
      <trkpt lat="48.28749" lon="6.79107">
        <ele>537.03</ele>
        <time>2022-04-09T12:16:25Z</time>
      </trkpt>
      <trkpt lat="48.28761" lon="6.79159">
        <ele>537.51</ele>
        <time>2022-04-09T12:16:37Z</time>
      </trkpt>
      <trkpt lat="48.2877" lon="6.79186">
        <ele>538.48</ele>
        <time>2022-04-09T12:16:44Z</time>
      </trkpt>
      <trkpt lat="48.28801" lon="6.7922">
        <ele>539.44</ele>
        <time>2022-04-09T12:16:54Z</time>
      </trkpt>
      <trkpt lat="48.28821" lon="6.79263">
        <ele>539.44</ele>
        <time>2022-04-09T12:17:06Z</time>
      </trkpt>
      <trkpt lat="48.28828" lon="6.79277">
        <ele>539.44</ele>
        <time>2022-04-09T12:17:10Z</time>
      </trkpt>
      <trkpt lat="48.28828" lon="6.79281">
        <ele>539.44</ele>
        <time>2022-04-09T12:17:11Z</time>
      </trkpt>
      <trkpt lat="48.28828" lon="6.79286">
        <ele>539.92</ele>
        <time>2022-04-09T12:17:12Z</time>
      </trkpt>
      <trkpt lat="48.28829" lon="6.7929">
        <ele>539.92</ele>
        <time>2022-04-09T12:17:13Z</time>
      </trkpt>
      <trkpt lat="48.2883" lon="6.79295">
        <ele>539.44</ele>
        <time>2022-04-09T12:17:14Z</time>
      </trkpt>
      <trkpt lat="48.2884" lon="6.79346">
        <ele>541.36</ele>
        <time>2022-04-09T12:17:26Z</time>
      </trkpt>
      <trkpt lat="48.28843" lon="6.79383">
        <ele>542.8</ele>
        <time>2022-04-09T12:17:35Z</time>
      </trkpt>
      <trkpt lat="48.28845" lon="6.79387">
        <ele>542.8</ele>
        <time>2022-04-09T12:17:36Z</time>
      </trkpt>
      <trkpt lat="48.28846" lon="6.7939">
        <ele>543.28</ele>
        <time>2022-04-09T12:17:37Z</time>
      </trkpt>
      <trkpt lat="48.28847" lon="6.79394">
        <ele>543.28</ele>
        <time>2022-04-09T12:17:38Z</time>
      </trkpt>
      <trkpt lat="48.28847" lon="6.79397">
        <ele>543.28</ele>
        <time>2022-04-09T12:17:39Z</time>
      </trkpt>
      <trkpt lat="48.28846" lon="6.794">
        <ele>543.76</ele>
        <time>2022-04-09T12:17:40Z</time>
      </trkpt>
      <trkpt lat="48.28846" lon="6.79402">
        <ele>543.28</ele>
        <time>2022-04-09T12:17:41Z</time>
      </trkpt>
      <trkpt lat="48.28845" lon="6.79404">
        <ele>543.76</ele>
        <time>2022-04-09T12:17:42Z</time>
      </trkpt>
      <trkpt lat="48.28845" lon="6.79408">
        <ele>543.76</ele>
        <time>2022-04-09T12:17:43Z</time>
      </trkpt>
      <trkpt lat="48.28846" lon="6.79412">
        <ele>543.76</ele>
        <time>2022-04-09T12:17:44Z</time>
      </trkpt>
      <trkpt lat="48.28854" lon="6.79462">
        <ele>544.24</ele>
        <time>2022-04-09T12:17:56Z</time>
      </trkpt>
      <trkpt lat="48.2885" lon="6.79501">
        <ele>545.69</ele>
        <time>2022-04-09T12:18:06Z</time>
      </trkpt>
      <trkpt lat="48.28847" lon="6.79514">
        <ele>546.17</ele>
        <time>2022-04-09T12:18:11Z</time>
      </trkpt>
      <trkpt lat="48.28836" lon="6.79549">
        <ele>547.61</ele>
        <time>2022-04-09T12:18:25Z</time>
      </trkpt>
      <trkpt lat="48.28822" lon="6.79579">
        <ele>548.57</ele>
        <time>2022-04-09T12:18:38Z</time>
      </trkpt>
      <trkpt lat="48.28803" lon="6.79585">
        <ele>549.53</ele>
        <time>2022-04-09T12:18:49Z</time>
      </trkpt>
      <trkpt lat="48.28792" lon="6.79583">
        <ele>550.49</ele>
        <time>2022-04-09T12:18:58Z</time>
      </trkpt>
      <trkpt lat="48.28774" lon="6.79587">
        <ele>550.01</ele>
        <time>2022-04-09T12:19:06Z</time>
      </trkpt>
      <trkpt lat="48.28772" lon="6.79588">
        <ele>550.01</ele>
        <time>2022-04-09T12:19:07Z</time>
      </trkpt>
      <trkpt lat="48.28769" lon="6.79589">
        <ele>550.49</ele>
        <time>2022-04-09T12:19:08Z</time>
      </trkpt>
      <trkpt lat="48.28768" lon="6.79591">
        <ele>550.49</ele>
        <time>2022-04-09T12:19:09Z</time>
      </trkpt>
      <trkpt lat="48.28761" lon="6.79594">
        <ele>550.49</ele>
        <time>2022-04-09T12:19:14Z</time>
      </trkpt>
      <trkpt lat="48.28736" lon="6.79603">
        <ele>550.49</ele>
        <time>2022-04-09T12:19:23Z</time>
      </trkpt>
      <trkpt lat="48.28734" lon="6.79604">
        <ele>550.97</ele>
        <time>2022-04-09T12:19:24Z</time>
      </trkpt>
      <trkpt lat="48.28723" lon="6.7962">
        <ele>550.49</ele>
        <time>2022-04-09T12:19:32Z</time>
      </trkpt>
      <trkpt lat="48.28707" lon="6.79638">
        <ele>550.49</ele>
        <time>2022-04-09T12:19:39Z</time>
      </trkpt>
      <trkpt lat="48.28704" lon="6.79645">
        <ele>550.97</ele>
        <time>2022-04-09T12:19:42Z</time>
      </trkpt>
      <trkpt lat="48.28695" lon="6.79661">
        <ele>552.41</ele>
        <time>2022-04-09T12:19:46Z</time>
      </trkpt>
      <trkpt lat="48.28681" lon="6.79684">
        <ele>553.38</ele>
        <time>2022-04-09T12:19:53Z</time>
      </trkpt>
      <trkpt lat="48.28666" lon="6.79706">
        <ele>554.34</ele>
        <time>2022-04-09T12:20:01Z</time>
      </trkpt>
      <trkpt lat="48.28664" lon="6.79707">
        <ele>554.34</ele>
        <time>2022-04-09T12:20:02Z</time>
      </trkpt>
      <trkpt lat="48.28655" lon="6.79737">
        <ele>555.78</ele>
        <time>2022-04-09T12:20:12Z</time>
      </trkpt>
      <trkpt lat="48.2865" lon="6.79756">
        <ele>556.26</ele>
        <time>2022-04-09T12:20:18Z</time>
      </trkpt>
      <trkpt lat="48.28643" lon="6.79769">
        <ele>556.26</ele>
        <time>2022-04-09T12:20:23Z</time>
      </trkpt>
      <trkpt lat="48.28642" lon="6.79772">
        <ele>556.74</ele>
        <time>2022-04-09T12:20:24Z</time>
      </trkpt>
      <trkpt lat="48.28637" lon="6.79778">
        <ele>556.74</ele>
        <time>2022-04-09T12:20:28Z</time>
      </trkpt>
      <trkpt lat="48.28622" lon="6.79805">
        <ele>557.22</ele>
        <time>2022-04-09T12:20:39Z</time>
      </trkpt>
      <trkpt lat="48.28617" lon="6.7982">
        <ele>557.22</ele>
        <time>2022-04-09T12:20:44Z</time>
      </trkpt>
      <trkpt lat="48.28616" lon="6.79823">
        <ele>557.22</ele>
        <time>2022-04-09T12:20:45Z</time>
      </trkpt>
      <trkpt lat="48.28598" lon="6.79859">
        <ele>558.18</ele>
        <time>2022-04-09T12:20:55Z</time>
      </trkpt>
      <trkpt lat="48.2859" lon="6.7989">
        <ele>559.14</ele>
        <time>2022-04-09T12:21:05Z</time>
      </trkpt>
      <trkpt lat="48.28573" lon="6.79925">
        <ele>561.07</ele>
        <time>2022-04-09T12:21:16Z</time>
      </trkpt>
      <trkpt lat="48.28572" lon="6.79937">
        <ele>561.55</ele>
        <time>2022-04-09T12:21:18Z</time>
      </trkpt>
      <trkpt lat="48.28572" lon="6.79942">
        <ele>561.55</ele>
        <time>2022-04-09T12:21:19Z</time>
      </trkpt>
      <trkpt lat="48.28571" lon="6.79948">
        <ele>561.55</ele>
        <time>2022-04-09T12:21:20Z</time>
      </trkpt>
      <trkpt lat="48.28571" lon="6.79953">
        <ele>561.55</ele>
        <time>2022-04-09T12:21:21Z</time>
      </trkpt>
      <trkpt lat="48.2857" lon="6.79957">
        <ele>561.55</ele>
        <time>2022-04-09T12:21:22Z</time>
      </trkpt>
      <trkpt lat="48.28568" lon="6.79961">
        <ele>562.03</ele>
        <time>2022-04-09T12:21:23Z</time>
      </trkpt>
      <trkpt lat="48.28564" lon="6.79978">
        <ele>562.03</ele>
        <time>2022-04-09T12:21:28Z</time>
      </trkpt>
      <trkpt lat="48.28563" lon="6.7998">
        <ele>562.51</ele>
        <time>2022-04-09T12:21:29Z</time>
      </trkpt>
      <trkpt lat="48.28561" lon="6.79983">
        <ele>562.51</ele>
        <time>2022-04-09T12:21:30Z</time>
      </trkpt>
      <trkpt lat="48.28559" lon="6.79986">
        <ele>562.51</ele>
        <time>2022-04-09T12:21:31Z</time>
      </trkpt>
      <trkpt lat="48.28558" lon="6.7999">
        <ele>562.51</ele>
        <time>2022-04-09T12:21:32Z</time>
      </trkpt>
      <trkpt lat="48.28557" lon="6.79994">
        <ele>562.51</ele>
        <time>2022-04-09T12:21:33Z</time>
      </trkpt>
      <trkpt lat="48.28557" lon="6.79998">
        <ele>562.99</ele>
        <time>2022-04-09T12:21:34Z</time>
      </trkpt>
      <trkpt lat="48.28556" lon="6.80003">
        <ele>562.99</ele>
        <time>2022-04-09T12:21:35Z</time>
      </trkpt>
      <trkpt lat="48.28555" lon="6.8002">
        <ele>562.99</ele>
        <time>2022-04-09T12:21:39Z</time>
      </trkpt>
      <trkpt lat="48.28557" lon="6.80023">
        <ele>562.99</ele>
        <time>2022-04-09T12:21:40Z</time>
      </trkpt>
      <trkpt lat="48.28557" lon="6.80026">
        <ele>562.99</ele>
        <time>2022-04-09T12:21:41Z</time>
      </trkpt>
      <trkpt lat="48.28558" lon="6.80032">
        <ele>562.99</ele>
        <time>2022-04-09T12:21:43Z</time>
      </trkpt>
      <trkpt lat="48.28557" lon="6.80035">
        <ele>562.99</ele>
        <time>2022-04-09T12:21:44Z</time>
      </trkpt>
      <trkpt lat="48.28558" lon="6.80038">
        <ele>563.47</ele>
        <time>2022-04-09T12:21:45Z</time>
      </trkpt>
      <trkpt lat="48.28558" lon="6.80042">
        <ele>562.99</ele>
        <time>2022-04-09T12:21:46Z</time>
      </trkpt>
      <trkpt lat="48.28559" lon="6.80046">
        <ele>563.47</ele>
        <time>2022-04-09T12:21:47Z</time>
      </trkpt>
      <trkpt lat="48.28561" lon="6.80051">
        <ele>562.99</ele>
        <time>2022-04-09T12:21:48Z</time>
      </trkpt>
      <trkpt lat="48.28562" lon="6.80055">
        <ele>562.99</ele>
        <time>2022-04-09T12:21:49Z</time>
      </trkpt>
      <trkpt lat="48.28564" lon="6.80058">
        <ele>562.99</ele>
        <time>2022-04-09T12:21:50Z</time>
      </trkpt>
      <trkpt lat="48.28565" lon="6.80061">
        <ele>562.99</ele>
        <time>2022-04-09T12:21:51Z</time>
      </trkpt>
      <trkpt lat="48.28582" lon="6.80097">
        <ele>561.55</ele>
        <time>2022-04-09T12:21:58Z</time>
      </trkpt>
      <trkpt lat="48.28587" lon="6.80101">
        <ele>561.07</ele>
        <time>2022-04-09T12:21:59Z</time>
      </trkpt>
      <trkpt lat="48.28591" lon="6.80105">
        <ele>560.59</ele>
        <time>2022-04-09T12:22:00Z</time>
      </trkpt>
      <trkpt lat="48.28596" lon="6.80111">
        <ele>560.59</ele>
        <time>2022-04-09T12:22:01Z</time>
      </trkpt>
      <trkpt lat="48.286" lon="6.80118">
        <ele>560.11</ele>
        <time>2022-04-09T12:22:02Z</time>
      </trkpt>
      <trkpt lat="48.28605" lon="6.80125">
        <ele>560.11</ele>
        <time>2022-04-09T12:22:03Z</time>
      </trkpt>
      <trkpt lat="48.28609" lon="6.80132">
        <ele>560.11</ele>
        <time>2022-04-09T12:22:04Z</time>
      </trkpt>
      <trkpt lat="48.28612" lon="6.80139">
        <ele>559.62</ele>
        <time>2022-04-09T12:22:05Z</time>
      </trkpt>
      <trkpt lat="48.28616" lon="6.80146">
        <ele>560.11</ele>
        <time>2022-04-09T12:22:06Z</time>
      </trkpt>
      <trkpt lat="48.28619" lon="6.80153">
        <ele>559.62</ele>
        <time>2022-04-09T12:22:07Z</time>
      </trkpt>
      <trkpt lat="48.28629" lon="6.80171">
        <ele>559.14</ele>
        <time>2022-04-09T12:22:10Z</time>
      </trkpt>
      <trkpt lat="48.28632" lon="6.80178">
        <ele>559.14</ele>
        <time>2022-04-09T12:22:11Z</time>
      </trkpt>
      <trkpt lat="48.28636" lon="6.80191">
        <ele>559.14</ele>
        <time>2022-04-09T12:22:13Z</time>
      </trkpt>
      <trkpt lat="48.28639" lon="6.80205">
        <ele>559.62</ele>
        <time>2022-04-09T12:22:15Z</time>
      </trkpt>
      <trkpt lat="48.28635" lon="6.80286">
        <ele>561.07</ele>
        <time>2022-04-09T12:22:28Z</time>
      </trkpt>
      <trkpt lat="48.28614" lon="6.80342">
        <ele>562.03</ele>
        <time>2022-04-09T12:22:40Z</time>
      </trkpt>
      <trkpt lat="48.28605" lon="6.80397">
        <ele>561.55</ele>
        <time>2022-04-09T12:22:50Z</time>
      </trkpt>
      <trkpt lat="48.28598" lon="6.80422">
        <ele>561.07</ele>
        <time>2022-04-09T12:22:54Z</time>
      </trkpt>
      <trkpt lat="48.28576" lon="6.80484">
        <ele>559.14</ele>
        <time>2022-04-09T12:23:04Z</time>
      </trkpt>
      <trkpt lat="48.28567" lon="6.80501">
        <ele>558.66</ele>
        <time>2022-04-09T12:23:07Z</time>
      </trkpt>
      <trkpt lat="48.28564" lon="6.80507">
        <ele>558.18</ele>
        <time>2022-04-09T12:23:08Z</time>
      </trkpt>
      <trkpt lat="48.2855" lon="6.80534">
        <ele>556.74</ele>
        <time>2022-04-09T12:23:12Z</time>
      </trkpt>
      <trkpt lat="48.28535" lon="6.80561">
        <ele>553.38</ele>
        <time>2022-04-09T12:23:15Z</time>
      </trkpt>
      <trkpt lat="48.28515" lon="6.80586">
        <ele>550.01</ele>
        <time>2022-04-09T12:23:18Z</time>
      </trkpt>
      <trkpt lat="48.28499" lon="6.806">
        <ele>546.65</ele>
        <time>2022-04-09T12:23:20Z</time>
      </trkpt>
      <trkpt lat="48.28471" lon="6.80619">
        <ele>542.8</ele>
        <time>2022-04-09T12:23:23Z</time>
      </trkpt>
      <trkpt lat="48.28443" lon="6.80633">
        <ele>540.88</ele>
        <time>2022-04-09T12:23:26Z</time>
      </trkpt>
      <trkpt lat="48.28435" lon="6.80637">
        <ele>541.84</ele>
        <time>2022-04-09T12:23:27Z</time>
      </trkpt>
      <trkpt lat="48.28429" lon="6.80644">
        <ele>541.84</ele>
        <time>2022-04-09T12:23:28Z</time>
      </trkpt>
      <trkpt lat="48.28424" lon="6.80651">
        <ele>541.36</ele>
        <time>2022-04-09T12:23:29Z</time>
      </trkpt>
      <trkpt lat="48.2842" lon="6.8066">
        <ele>541.84</ele>
        <time>2022-04-09T12:23:30Z</time>
      </trkpt>
      <trkpt lat="48.28417" lon="6.80668">
        <ele>542.32</ele>
        <time>2022-04-09T12:23:31Z</time>
      </trkpt>
      <trkpt lat="48.28417" lon="6.80675">
        <ele>542.8</ele>
        <time>2022-04-09T12:23:32Z</time>
      </trkpt>
      <trkpt lat="48.28417" lon="6.80681">
        <ele>543.28</ele>
        <time>2022-04-09T12:23:33Z</time>
      </trkpt>
      <trkpt lat="48.28412" lon="6.80707">
        <ele>544.24</ele>
        <time>2022-04-09T12:23:41Z</time>
      </trkpt>
      <trkpt lat="48.28411" lon="6.80718">
        <ele>545.2</ele>
        <time>2022-04-09T12:23:45Z</time>
      </trkpt>
      <trkpt lat="48.28413" lon="6.80723">
        <ele>545.2</ele>
        <time>2022-04-09T12:23:47Z</time>
      </trkpt>
      <trkpt lat="48.28414" lon="6.80727">
        <ele>545.69</ele>
        <time>2022-04-09T12:23:48Z</time>
      </trkpt>
      <trkpt lat="48.28415" lon="6.80732">
        <ele>546.17</ele>
        <time>2022-04-09T12:23:51Z</time>
      </trkpt>
      <trkpt lat="48.28416" lon="6.80736">
        <ele>546.65</ele>
        <time>2022-04-09T12:23:53Z</time>
      </trkpt>
      <trkpt lat="48.28418" lon="6.80741">
        <ele>546.65</ele>
        <time>2022-04-09T12:23:54Z</time>
      </trkpt>
      <trkpt lat="48.28418" lon="6.80746">
        <ele>547.13</ele>
        <time>2022-04-09T12:23:55Z</time>
      </trkpt>
      <trkpt lat="48.2842" lon="6.80751">
        <ele>547.13</ele>
        <time>2022-04-09T12:23:56Z</time>
      </trkpt>
      <trkpt lat="48.28422" lon="6.80755">
        <ele>547.61</ele>
        <time>2022-04-09T12:23:57Z</time>
      </trkpt>
      <trkpt lat="48.28424" lon="6.80759">
        <ele>547.61</ele>
        <time>2022-04-09T12:23:58Z</time>
      </trkpt>
      <trkpt lat="48.28425" lon="6.80763">
        <ele>548.09</ele>
        <time>2022-04-09T12:23:59Z</time>
      </trkpt>
      <trkpt lat="48.28435" lon="6.80805">
        <ele>549.05</ele>
        <time>2022-04-09T12:24:09Z</time>
      </trkpt>
      <trkpt lat="48.28436" lon="6.80808">
        <ele>549.05</ele>
        <time>2022-04-09T12:24:10Z</time>
      </trkpt>
      <trkpt lat="48.28453" lon="6.80849">
        <ele>551.93</ele>
        <time>2022-04-09T12:24:26Z</time>
      </trkpt>
      <trkpt lat="48.28462" lon="6.80884">
        <ele>553.86</ele>
        <time>2022-04-09T12:24:41Z</time>
      </trkpt>
      <trkpt lat="48.28472" lon="6.80909">
        <ele>555.3</ele>
        <time>2022-04-09T12:24:56Z</time>
      </trkpt>
      <trkpt lat="48.28471" lon="6.80915">
        <ele>555.78</ele>
        <time>2022-04-09T12:25:16Z</time>
      </trkpt>
      <trkpt lat="48.28464" lon="6.80922">
        <ele>555.78</ele>
        <time>2022-04-09T12:25:40Z</time>
      </trkpt>
      <trkpt lat="48.28462" lon="6.80925">
        <ele>555.3</ele>
        <time>2022-04-09T12:25:59Z</time>
      </trkpt>
      <trkpt lat="48.28463" lon="6.80928">
        <ele>555.78</ele>
        <time>2022-04-09T12:26:01Z</time>
      </trkpt>
      <trkpt lat="48.28464" lon="6.8093">
        <ele>555.78</ele>
        <time>2022-04-09T12:26:02Z</time>
      </trkpt>
      <trkpt lat="48.28465" lon="6.80932">
        <ele>555.78</ele>
        <time>2022-04-09T12:26:03Z</time>
      </trkpt>
      <trkpt lat="48.28466" lon="6.80933">
        <ele>556.26</ele>
        <time>2022-04-09T12:26:04Z</time>
      </trkpt>
      <trkpt lat="48.28467" lon="6.80935">
        <ele>556.26</ele>
        <time>2022-04-09T12:26:05Z</time>
      </trkpt>
      <trkpt lat="48.28478" lon="6.80952">
        <ele>558.18</ele>
        <time>2022-04-09T12:26:16Z</time>
      </trkpt>
      <trkpt lat="48.28486" lon="6.80964">
        <ele>559.62</ele>
        <time>2022-04-09T12:26:29Z</time>
      </trkpt>
      <trkpt lat="48.2849" lon="6.80962">
        <ele>560.11</ele>
        <time>2022-04-09T12:26:48Z</time>
      </trkpt>
      <trkpt lat="48.28494" lon="6.80972">
        <ele>560.11</ele>
        <time>2022-04-09T12:26:54Z</time>
      </trkpt>
      <trkpt lat="48.28495" lon="6.80974">
        <ele>560.59</ele>
        <time>2022-04-09T12:26:55Z</time>
      </trkpt>
      <trkpt lat="48.28496" lon="6.80976">
        <ele>560.59</ele>
        <time>2022-04-09T12:26:56Z</time>
      </trkpt>
      <trkpt lat="48.28496" lon="6.80977">
        <ele>561.07</ele>
        <time>2022-04-09T12:26:57Z</time>
      </trkpt>
      <trkpt lat="48.28506" lon="6.81002">
        <ele>562.99</ele>
        <time>2022-04-09T12:27:11Z</time>
      </trkpt>
      <trkpt lat="48.28514" lon="6.81026">
        <ele>564.91</ele>
        <time>2022-04-09T12:27:24Z</time>
      </trkpt>
      <trkpt lat="48.2853" lon="6.81051">
        <ele>567.8</ele>
        <time>2022-04-09T12:27:39Z</time>
      </trkpt>
      <trkpt lat="48.28532" lon="6.81055">
        <ele>567.8</ele>
        <time>2022-04-09T12:27:41Z</time>
      </trkpt>
      <trkpt lat="48.28532" lon="6.81057">
        <ele>567.8</ele>
        <time>2022-04-09T12:27:42Z</time>
      </trkpt>
      <trkpt lat="48.28544" lon="6.8108">
        <ele>570.2</ele>
        <time>2022-04-09T12:27:56Z</time>
      </trkpt>
      <trkpt lat="48.28557" lon="6.81104">
        <ele>572.6</ele>
        <time>2022-04-09T12:28:12Z</time>
      </trkpt>
      <trkpt lat="48.28568" lon="6.81127">
        <ele>574.53</ele>
        <time>2022-04-09T12:28:26Z</time>
      </trkpt>
      <trkpt lat="48.2858" lon="6.81149">
        <ele>575.97</ele>
        <time>2022-04-09T12:28:39Z</time>
      </trkpt>
      <trkpt lat="48.28592" lon="6.8117">
        <ele>577.89</ele>
        <time>2022-04-09T12:28:53Z</time>
      </trkpt>
      <trkpt lat="48.28598" lon="6.81198">
        <ele>579.81</ele>
        <time>2022-04-09T12:29:06Z</time>
      </trkpt>
      <trkpt lat="48.28603" lon="6.81219">
        <ele>580.77</ele>
        <time>2022-04-09T12:29:16Z</time>
      </trkpt>
      <trkpt lat="48.28613" lon="6.81246">
        <ele>582.7</ele>
        <time>2022-04-09T12:29:30Z</time>
      </trkpt>
      <trkpt lat="48.28619" lon="6.81276">
        <ele>584.14</ele>
        <time>2022-04-09T12:29:41Z</time>
      </trkpt>
      <trkpt lat="48.28625" lon="6.8129">
        <ele>584.62</ele>
        <time>2022-04-09T12:29:47Z</time>
      </trkpt>
      <trkpt lat="48.28628" lon="6.81292">
        <ele>584.62</ele>
        <time>2022-04-09T12:29:49Z</time>
      </trkpt>
      <trkpt lat="48.2863" lon="6.81293">
        <ele>583.66</ele>
        <time>2022-04-09T12:29:50Z</time>
      </trkpt>
      <trkpt lat="48.28632" lon="6.81295">
        <ele>584.62</ele>
        <time>2022-04-09T12:29:51Z</time>
      </trkpt>
      <trkpt lat="48.28643" lon="6.81308">
        <ele>585.1</ele>
        <time>2022-04-09T12:29:59Z</time>
      </trkpt>
      <trkpt lat="48.28655" lon="6.81328">
        <ele>585.58</ele>
        <time>2022-04-09T12:30:05Z</time>
      </trkpt>
      <trkpt lat="48.28657" lon="6.8133">
        <ele>585.58</ele>
        <time>2022-04-09T12:30:06Z</time>
      </trkpt>
      <trkpt lat="48.28662" lon="6.81333">
        <ele>586.06</ele>
        <time>2022-04-09T12:30:10Z</time>
      </trkpt>
      <trkpt lat="48.28664" lon="6.81335">
        <ele>586.06</ele>
        <time>2022-04-09T12:30:12Z</time>
      </trkpt>
      <trkpt lat="48.28666" lon="6.81336">
        <ele>585.58</ele>
        <time>2022-04-09T12:30:13Z</time>
      </trkpt>
      <trkpt lat="48.28673" lon="6.81347">
        <ele>586.54</ele>
        <time>2022-04-09T12:30:18Z</time>
      </trkpt>
      <trkpt lat="48.28674" lon="6.8135">
        <ele>586.54</ele>
        <time>2022-04-09T12:30:19Z</time>
      </trkpt>
      <trkpt lat="48.28675" lon="6.81352">
        <ele>586.54</ele>
        <time>2022-04-09T12:30:20Z</time>
      </trkpt>
      <trkpt lat="48.2868" lon="6.81357">
        <ele>587.02</ele>
        <time>2022-04-09T12:30:23Z</time>
      </trkpt>
      <trkpt lat="48.28681" lon="6.81358">
        <ele>587.02</ele>
        <time>2022-04-09T12:30:24Z</time>
      </trkpt>
      <trkpt lat="48.287" lon="6.81376">
        <ele>587.98</ele>
        <time>2022-04-09T12:30:35Z</time>
      </trkpt>
      <trkpt lat="48.28702" lon="6.81377">
        <ele>587.5</ele>
        <time>2022-04-09T12:30:36Z</time>
      </trkpt>
      <trkpt lat="48.28715" lon="6.81392">
        <ele>587.98</ele>
        <time>2022-04-09T12:30:40Z</time>
      </trkpt>
      <trkpt lat="48.28726" lon="6.81413">
        <ele>588.46</ele>
        <time>2022-04-09T12:30:45Z</time>
      </trkpt>
      <trkpt lat="48.28727" lon="6.81415">
        <ele>588.46</ele>
        <time>2022-04-09T12:30:46Z</time>
      </trkpt>
      <trkpt lat="48.28749" lon="6.81448">
        <ele>588.95</ele>
        <time>2022-04-09T12:30:59Z</time>
      </trkpt>
      <trkpt lat="48.28757" lon="6.81461">
        <ele>589.43</ele>
        <time>2022-04-09T12:31:04Z</time>
      </trkpt>
      <trkpt lat="48.28759" lon="6.81464">
        <ele>589.43</ele>
        <time>2022-04-09T12:31:05Z</time>
      </trkpt>
      <trkpt lat="48.2876" lon="6.81467">
        <ele>589.43</ele>
        <time>2022-04-09T12:31:06Z</time>
      </trkpt>
      <trkpt lat="48.28761" lon="6.81471">
        <ele>588.95</ele>
        <time>2022-04-09T12:31:07Z</time>
      </trkpt>
      <trkpt lat="48.28763" lon="6.81474">
        <ele>589.43</ele>
        <time>2022-04-09T12:31:08Z</time>
      </trkpt>
      <trkpt lat="48.28764" lon="6.81476">
        <ele>589.43</ele>
        <time>2022-04-09T12:31:09Z</time>
      </trkpt>
      <trkpt lat="48.28766" lon="6.81479">
        <ele>589.91</ele>
        <time>2022-04-09T12:31:10Z</time>
      </trkpt>
      <trkpt lat="48.2877" lon="6.81484">
        <ele>589.91</ele>
        <time>2022-04-09T12:31:13Z</time>
      </trkpt>
      <trkpt lat="48.28772" lon="6.81488">
        <ele>589.91</ele>
        <time>2022-04-09T12:31:15Z</time>
      </trkpt>
      <trkpt lat="48.28775" lon="6.81527">
        <ele>591.35</ele>
        <time>2022-04-09T12:31:26Z</time>
      </trkpt>
      <trkpt lat="48.28781" lon="6.81556">
        <ele>592.31</ele>
        <time>2022-04-09T12:31:34Z</time>
      </trkpt>
      <trkpt lat="48.28782" lon="6.81559">
        <ele>592.79</ele>
        <time>2022-04-09T12:31:35Z</time>
      </trkpt>
      <trkpt lat="48.28783" lon="6.81561">
        <ele>592.79</ele>
        <time>2022-04-09T12:31:36Z</time>
      </trkpt>
      <trkpt lat="48.2879" lon="6.816">
        <ele>594.23</ele>
        <time>2022-04-09T12:31:49Z</time>
      </trkpt>
      <trkpt lat="48.28798" lon="6.8164">
        <ele>595.19</ele>
        <time>2022-04-09T12:32:02Z</time>
      </trkpt>
      <trkpt lat="48.28801" lon="6.81663">
        <ele>596.15</ele>
        <time>2022-04-09T12:32:13Z</time>
      </trkpt>
      <trkpt lat="48.28806" lon="6.81684">
        <ele>597.6</ele>
        <time>2022-04-09T12:32:24Z</time>
      </trkpt>
      <trkpt lat="48.28811" lon="6.81726">
        <ele>598.08</ele>
        <time>2022-04-09T12:32:36Z</time>
      </trkpt>
      <trkpt lat="48.28813" lon="6.81755">
        <ele>599.04</ele>
        <time>2022-04-09T12:32:46Z</time>
      </trkpt>
      <trkpt lat="48.2882" lon="6.81778">
        <ele>600.48</ele>
        <time>2022-04-09T12:32:57Z</time>
      </trkpt>
      <trkpt lat="48.28822" lon="6.81783">
        <ele>600.48</ele>
        <time>2022-04-09T12:32:59Z</time>
      </trkpt>
      <trkpt lat="48.28827" lon="6.81802">
        <ele>601.44</ele>
        <time>2022-04-09T12:33:07Z</time>
      </trkpt>
      <trkpt lat="48.28827" lon="6.81808">
        <ele>601.44</ele>
        <time>2022-04-09T12:33:08Z</time>
      </trkpt>
      <trkpt lat="48.28838" lon="6.81863">
        <ele>602.4</ele>
        <time>2022-04-09T12:33:22Z</time>
      </trkpt>
      <trkpt lat="48.28854" lon="6.81904">
        <ele>601.92</ele>
        <time>2022-04-09T12:33:34Z</time>
      </trkpt>
      <trkpt lat="48.28872" lon="6.81962">
        <ele>599.52</ele>
        <time>2022-04-09T12:33:48Z</time>
      </trkpt>
      <trkpt lat="48.28877" lon="6.81983">
        <ele>597.6</ele>
        <time>2022-04-09T12:33:52Z</time>
      </trkpt>
      <trkpt lat="48.28888" lon="6.82005">
        <ele>595.67</ele>
        <time>2022-04-09T12:33:57Z</time>
      </trkpt>
      <trkpt lat="48.28891" lon="6.82013">
        <ele>595.19</ele>
        <time>2022-04-09T12:33:58Z</time>
      </trkpt>
      <trkpt lat="48.28911" lon="6.82054">
        <ele>592.31</ele>
        <time>2022-04-09T12:34:02Z</time>
      </trkpt>
      <trkpt lat="48.28923" lon="6.82071">
        <ele>591.35</ele>
        <time>2022-04-09T12:34:04Z</time>
      </trkpt>
      <trkpt lat="48.28957" lon="6.82117">
        <ele>590.87</ele>
        <time>2022-04-09T12:34:11Z</time>
      </trkpt>
      <trkpt lat="48.28998" lon="6.82181">
        <ele>592.31</ele>
        <time>2022-04-09T12:34:23Z</time>
      </trkpt>
      <trkpt lat="48.29" lon="6.82184">
        <ele>592.31</ele>
        <time>2022-04-09T12:34:24Z</time>
      </trkpt>
      <trkpt lat="48.29001" lon="6.82186">
        <ele>591.83</ele>
        <time>2022-04-09T12:34:25Z</time>
      </trkpt>
      <trkpt lat="48.29004" lon="6.8219">
        <ele>592.31</ele>
        <time>2022-04-09T12:34:26Z</time>
      </trkpt>
      <trkpt lat="48.29006" lon="6.82192">
        <ele>592.79</ele>
        <time>2022-04-09T12:34:27Z</time>
      </trkpt>
      <trkpt lat="48.29008" lon="6.82196">
        <ele>592.31</ele>
        <time>2022-04-09T12:34:28Z</time>
      </trkpt>
      <trkpt lat="48.29011" lon="6.822">
        <ele>592.79</ele>
        <time>2022-04-09T12:34:29Z</time>
      </trkpt>
      <trkpt lat="48.29026" lon="6.8221">
        <ele>592.79</ele>
        <time>2022-04-09T12:34:35Z</time>
      </trkpt>
      <trkpt lat="48.29029" lon="6.8221">
        <ele>593.27</ele>
        <time>2022-04-09T12:34:36Z</time>
      </trkpt>
      <trkpt lat="48.29066" lon="6.82236">
        <ele>594.23</ele>
        <time>2022-04-09T12:34:47Z</time>
      </trkpt>
      <trkpt lat="48.2907" lon="6.82237">
        <ele>594.23</ele>
        <time>2022-04-09T12:34:48Z</time>
      </trkpt>
      <trkpt lat="48.2911" lon="6.82253">
        <ele>595.67</ele>
        <time>2022-04-09T12:35:01Z</time>
      </trkpt>
      <trkpt lat="48.29116" lon="6.82258">
        <ele>595.67</ele>
        <time>2022-04-09T12:35:03Z</time>
      </trkpt>
      <trkpt lat="48.29147" lon="6.82291">
        <ele>597.12</ele>
        <time>2022-04-09T12:35:11Z</time>
      </trkpt>
      <trkpt lat="48.2919" lon="6.82307">
        <ele>597.6</ele>
        <time>2022-04-09T12:35:22Z</time>
      </trkpt>
      <trkpt lat="48.29236" lon="6.82316">
        <ele>598.08</ele>
        <time>2022-04-09T12:35:34Z</time>
      </trkpt>
      <trkpt lat="48.29263" lon="6.8233">
        <ele>599.04</ele>
        <time>2022-04-09T12:35:44Z</time>
      </trkpt>
      <trkpt lat="48.29301" lon="6.82347">
        <ele>601.92</ele>
        <time>2022-04-09T12:35:57Z</time>
      </trkpt>
      <trkpt lat="48.29333" lon="6.82367">
        <ele>604.33</ele>
        <time>2022-04-09T12:36:08Z</time>
      </trkpt>
      <trkpt lat="48.29364" lon="6.82392">
        <ele>604.81</ele>
        <time>2022-04-09T12:36:18Z</time>
      </trkpt>
      <trkpt lat="48.29394" lon="6.82434">
        <ele>605.29</ele>
        <time>2022-04-09T12:36:30Z</time>
      </trkpt>
      <trkpt lat="48.2943" lon="6.82485">
        <ele>605.29</ele>
        <time>2022-04-09T12:36:43Z</time>
      </trkpt>
      <trkpt lat="48.29438" lon="6.82501">
        <ele>604.81</ele>
        <time>2022-04-09T12:36:46Z</time>
      </trkpt>
      <trkpt lat="48.29474" lon="6.8257">
        <ele>604.81</ele>
        <time>2022-04-09T12:37:01Z</time>
      </trkpt>
      <trkpt lat="48.29479" lon="6.8258">
        <ele>604.81</ele>
        <time>2022-04-09T12:37:03Z</time>
      </trkpt>
      <trkpt lat="48.29482" lon="6.82585">
        <ele>604.33</ele>
        <time>2022-04-09T12:37:04Z</time>
      </trkpt>
      <trkpt lat="48.29517" lon="6.82656">
        <ele>603.85</ele>
        <time>2022-04-09T12:37:18Z</time>
      </trkpt>
      <trkpt lat="48.29525" lon="6.82669">
        <ele>604.33</ele>
        <time>2022-04-09T12:37:21Z</time>
      </trkpt>
      <trkpt lat="48.29527" lon="6.82674">
        <ele>604.33</ele>
        <time>2022-04-09T12:37:22Z</time>
      </trkpt>
      <trkpt lat="48.29528" lon="6.8268">
        <ele>604.33</ele>
        <time>2022-04-09T12:37:23Z</time>
      </trkpt>
      <trkpt lat="48.29529" lon="6.82686">
        <ele>603.85</ele>
        <time>2022-04-09T12:37:24Z</time>
      </trkpt>
      <trkpt lat="48.29529" lon="6.82693">
        <ele>604.33</ele>
        <time>2022-04-09T12:37:25Z</time>
      </trkpt>
      <trkpt lat="48.29529" lon="6.827">
        <ele>603.85</ele>
        <time>2022-04-09T12:37:26Z</time>
      </trkpt>
      <trkpt lat="48.29529" lon="6.82714">
        <ele>603.85</ele>
        <time>2022-04-09T12:37:28Z</time>
      </trkpt>
      <trkpt lat="48.29528" lon="6.82721">
        <ele>603.85</ele>
        <time>2022-04-09T12:37:29Z</time>
      </trkpt>
      <trkpt lat="48.29526" lon="6.82728">
        <ele>603.85</ele>
        <time>2022-04-09T12:37:30Z</time>
      </trkpt>
      <trkpt lat="48.29525" lon="6.82735">
        <ele>603.85</ele>
        <time>2022-04-09T12:37:31Z</time>
      </trkpt>
      <trkpt lat="48.29523" lon="6.82741">
        <ele>603.85</ele>
        <time>2022-04-09T12:37:32Z</time>
      </trkpt>
      <trkpt lat="48.29517" lon="6.8276">
        <ele>603.85</ele>
        <time>2022-04-09T12:37:35Z</time>
      </trkpt>
      <trkpt lat="48.29506" lon="6.82813">
        <ele>604.33</ele>
        <time>2022-04-09T12:37:44Z</time>
      </trkpt>
      <trkpt lat="48.29505" lon="6.82819">
        <ele>604.33</ele>
        <time>2022-04-09T12:37:45Z</time>
      </trkpt>
      <trkpt lat="48.295" lon="6.82843">
        <ele>603.36</ele>
        <time>2022-04-09T12:37:49Z</time>
      </trkpt>
      <trkpt lat="48.29498" lon="6.8285">
        <ele>603.36</ele>
        <time>2022-04-09T12:37:50Z</time>
      </trkpt>
      <trkpt lat="48.29496" lon="6.82857">
        <ele>602.88</ele>
        <time>2022-04-09T12:37:51Z</time>
      </trkpt>
      <trkpt lat="48.29494" lon="6.82864">
        <ele>602.4</ele>
        <time>2022-04-09T12:37:52Z</time>
      </trkpt>
      <trkpt lat="48.2949" lon="6.82881">
        <ele>602.4</ele>
        <time>2022-04-09T12:37:54Z</time>
      </trkpt>
      <trkpt lat="48.29479" lon="6.82923">
        <ele>600.48</ele>
        <time>2022-04-09T12:37:59Z</time>
      </trkpt>
      <trkpt lat="48.2947" lon="6.8295">
        <ele>600</ele>
        <time>2022-04-09T12:38:02Z</time>
      </trkpt>
      <trkpt lat="48.29466" lon="6.82958">
        <ele>600</ele>
        <time>2022-04-09T12:38:03Z</time>
      </trkpt>
      <trkpt lat="48.29459" lon="6.82973">
        <ele>599.52</ele>
        <time>2022-04-09T12:38:05Z</time>
      </trkpt>
      <trkpt lat="48.29444" lon="6.82994">
        <ele>600</ele>
        <time>2022-04-09T12:38:09Z</time>
      </trkpt>
      <trkpt lat="48.29411" lon="6.83028">
        <ele>599.52</ele>
        <time>2022-04-09T12:38:20Z</time>
      </trkpt>
      <trkpt lat="48.29394" lon="6.83056">
        <ele>600</ele>
        <time>2022-04-09T12:38:32Z</time>
      </trkpt>
      <trkpt lat="48.29389" lon="6.83063">
        <ele>603.36</ele>
        <time>2022-04-09T12:38:40Z</time>
      </trkpt>
      <trkpt lat="48.29388" lon="6.83063">
        <ele>600.48</ele>
        <time>2022-04-09T12:38:42Z</time>
      </trkpt>
      <trkpt lat="48.29388" lon="6.83063">
        <ele>607.21</ele>
        <time>2022-04-09T12:38:43Z</time>
      </trkpt>
      <trkpt lat="48.29388" lon="6.83063">
        <ele>596.64</ele>
        <time>2022-04-09T12:38:44Z</time>
      </trkpt>
      <trkpt lat="48.29388" lon="6.83063">
        <ele>604.81</ele>
        <time>2022-04-09T12:38:45Z</time>
      </trkpt>
      <trkpt lat="48.29388" lon="6.83063">
        <ele>595.67</ele>
        <time>2022-04-09T12:38:46Z</time>
      </trkpt>
      <trkpt lat="48.29387" lon="6.83063">
        <ele>601.92</ele>
        <time>2022-04-09T12:38:48Z</time>
      </trkpt>
      <trkpt lat="48.29387" lon="6.83063">
        <ele>603.36</ele>
        <time>2022-04-09T12:38:49Z</time>
      </trkpt>
      <trkpt lat="48.29387" lon="6.83063">
        <ele>606.25</ele>
        <time>2022-04-09T12:38:50Z</time>
      </trkpt>
      <trkpt lat="48.29387" lon="6.83063">
        <ele>599.04</ele>
        <time>2022-04-09T12:38:51Z</time>
      </trkpt>
      <trkpt lat="48.29387" lon="6.83063">
        <ele>600.96</ele>
        <time>2022-04-09T12:38:52Z</time>
      </trkpt>
      <trkpt lat="48.29387" lon="6.83063">
        <ele>593.75</ele>
        <time>2022-04-09T12:38:54Z</time>
      </trkpt>
      <trkpt lat="48.29387" lon="6.83063">
        <ele>601.92</ele>
        <time>2022-04-09T12:38:55Z</time>
      </trkpt>
      <trkpt lat="48.29387" lon="6.83063">
        <ele>594.71</ele>
        <time>2022-04-09T12:38:56Z</time>
      </trkpt>
      <trkpt lat="48.29387" lon="6.83063">
        <ele>604.81</ele>
        <time>2022-04-09T12:38:57Z</time>
      </trkpt>
      <trkpt lat="48.29387" lon="6.83063">
        <ele>597.6</ele>
        <time>2022-04-09T12:38:58Z</time>
      </trkpt>
      <trkpt lat="48.29388" lon="6.83063">
        <ele>595.67</ele>
        <time>2022-04-09T12:39:01Z</time>
      </trkpt>
      <trkpt lat="48.29388" lon="6.83063">
        <ele>600.48</ele>
        <time>2022-04-09T12:39:02Z</time>
      </trkpt>
      <trkpt lat="48.29388" lon="6.83063">
        <ele>600.48</ele>
        <time>2022-04-09T12:39:03Z</time>
      </trkpt>
      <trkpt lat="48.29388" lon="6.83063">
        <ele>596.64</ele>
        <time>2022-04-09T12:39:04Z</time>
      </trkpt>
      <trkpt lat="48.29388" lon="6.83063">
        <ele>600.48</ele>
        <time>2022-04-09T12:39:05Z</time>
      </trkpt>
      <trkpt lat="48.29388" lon="6.83063">
        <ele>609.61</ele>
        <time>2022-04-09T12:39:06Z</time>
      </trkpt>
      <trkpt lat="48.29388" lon="6.83063">
        <ele>600.48</ele>
        <time>2022-04-09T12:39:07Z</time>
      </trkpt>
      <trkpt lat="48.29388" lon="6.83063">
        <ele>599.04</ele>
        <time>2022-04-09T12:39:09Z</time>
      </trkpt>
      <trkpt lat="48.29388" lon="6.83063">
        <ele>606.73</ele>
        <time>2022-04-09T12:39:10Z</time>
      </trkpt>
      <trkpt lat="48.29388" lon="6.83063">
        <ele>596.15</ele>
        <time>2022-04-09T12:39:11Z</time>
      </trkpt>
      <trkpt lat="48.29389" lon="6.83063">
        <ele>603.85</ele>
        <time>2022-04-09T12:39:12Z</time>
      </trkpt>
      <trkpt lat="48.29389" lon="6.83063">
        <ele>600.48</ele>
        <time>2022-04-09T12:39:13Z</time>
      </trkpt>
      <trkpt lat="48.2939" lon="6.83064">
        <ele>608.65</ele>
        <time>2022-04-09T12:39:22Z</time>
      </trkpt>
      <trkpt lat="48.2939" lon="6.83063">
        <ele>599.04</ele>
        <time>2022-04-09T12:39:23Z</time>
      </trkpt>
      <trkpt lat="48.2939" lon="6.83064">
        <ele>593.27</ele>
        <time>2022-04-09T12:39:24Z</time>
      </trkpt>
      <trkpt lat="48.2939" lon="6.83064">
        <ele>600.96</ele>
        <time>2022-04-09T12:39:25Z</time>
      </trkpt>
      <trkpt lat="48.2939" lon="6.83064">
        <ele>601.44</ele>
        <time>2022-04-09T12:39:26Z</time>
      </trkpt>
      <trkpt lat="48.2939" lon="6.83064">
        <ele>594.71</ele>
        <time>2022-04-09T12:39:28Z</time>
      </trkpt>
      <trkpt lat="48.2939" lon="6.83064">
        <ele>597.12</ele>
        <time>2022-04-09T12:39:29Z</time>
      </trkpt>
      <trkpt lat="48.2939" lon="6.83064">
        <ele>609.13</ele>
        <time>2022-04-09T12:39:31Z</time>
      </trkpt>
      <trkpt lat="48.2939" lon="6.83063">
        <ele>598.56</ele>
        <time>2022-04-09T12:39:32Z</time>
      </trkpt>
      <trkpt lat="48.2939" lon="6.83063">
        <ele>606.25</ele>
        <time>2022-04-09T12:39:33Z</time>
      </trkpt>
      <trkpt lat="48.2939" lon="6.83063">
        <ele>590.39</ele>
        <time>2022-04-09T12:39:35Z</time>
      </trkpt>
      <trkpt lat="48.2939" lon="6.83063">
        <ele>601.44</ele>
        <time>2022-04-09T12:39:36Z</time>
      </trkpt>
      <trkpt lat="48.29389" lon="6.83063">
        <ele>607.21</ele>
        <time>2022-04-09T12:39:41Z</time>
      </trkpt>
      <trkpt lat="48.29389" lon="6.83063">
        <ele>601.92</ele>
        <time>2022-04-09T12:39:42Z</time>
      </trkpt>
      <trkpt lat="48.29389" lon="6.83063">
        <ele>590.39</ele>
        <time>2022-04-09T12:39:44Z</time>
      </trkpt>
      <trkpt lat="48.29389" lon="6.83064">
        <ele>604.33</ele>
        <time>2022-04-09T12:39:45Z</time>
      </trkpt>
      <trkpt lat="48.29389" lon="6.83064">
        <ele>608.65</ele>
        <time>2022-04-09T12:39:46Z</time>
      </trkpt>
      <trkpt lat="48.29389" lon="6.83064">
        <ele>598.56</ele>
        <time>2022-04-09T12:39:47Z</time>
      </trkpt>
      <trkpt lat="48.29389" lon="6.83064">
        <ele>599.52</ele>
        <time>2022-04-09T12:39:48Z</time>
      </trkpt>
      <trkpt lat="48.29389" lon="6.83064">
        <ele>594.23</ele>
        <time>2022-04-09T12:39:50Z</time>
      </trkpt>
      <trkpt lat="48.29389" lon="6.83064">
        <ele>600.48</ele>
        <time>2022-04-09T12:39:51Z</time>
      </trkpt>
      <trkpt lat="48.29389" lon="6.83064">
        <ele>590.39</ele>
        <time>2022-04-09T12:39:54Z</time>
      </trkpt>
      <trkpt lat="48.29389" lon="6.83064">
        <ele>602.88</ele>
        <time>2022-04-09T12:39:55Z</time>
      </trkpt>
      <trkpt lat="48.29389" lon="6.83064">
        <ele>593.75</ele>
        <time>2022-04-09T12:39:56Z</time>
      </trkpt>
      <trkpt lat="48.29389" lon="6.83064">
        <ele>600.48</ele>
        <time>2022-04-09T12:39:57Z</time>
      </trkpt>
      <trkpt lat="48.29389" lon="6.83064">
        <ele>595.19</ele>
        <time>2022-04-09T12:39:58Z</time>
      </trkpt>
      <trkpt lat="48.29389" lon="6.83064">
        <ele>603.85</ele>
        <time>2022-04-09T12:40:00Z</time>
      </trkpt>
      <trkpt lat="48.29389" lon="6.83064">
        <ele>596.15</ele>
        <time>2022-04-09T12:40:01Z</time>
      </trkpt>
      <trkpt lat="48.29389" lon="6.83064">
        <ele>603.85</ele>
        <time>2022-04-09T12:40:02Z</time>
      </trkpt>
      <trkpt lat="48.29389" lon="6.83063">
        <ele>598.08</ele>
        <time>2022-04-09T12:40:03Z</time>
      </trkpt>
      <trkpt lat="48.29389" lon="6.83063">
        <ele>605.29</ele>
        <time>2022-04-09T12:40:04Z</time>
      </trkpt>
      <trkpt lat="48.29389" lon="6.83063">
        <ele>600</ele>
        <time>2022-04-09T12:40:05Z</time>
      </trkpt>
      <trkpt lat="48.2939" lon="6.83063">
        <ele>592.31</ele>
        <time>2022-04-09T12:40:07Z</time>
      </trkpt>
      <trkpt lat="48.2939" lon="6.83063">
        <ele>600.96</ele>
        <time>2022-04-09T12:40:08Z</time>
      </trkpt>
      <trkpt lat="48.2939" lon="6.83063">
        <ele>597.12</ele>
        <time>2022-04-09T12:40:09Z</time>
      </trkpt>
      <trkpt lat="48.2939" lon="6.83063">
        <ele>602.88</ele>
        <time>2022-04-09T12:40:11Z</time>
      </trkpt>
      <trkpt lat="48.2939" lon="6.83063">
        <ele>597.6</ele>
        <time>2022-04-09T12:40:12Z</time>
      </trkpt>
      <trkpt lat="48.2939" lon="6.83063">
        <ele>599.52</ele>
        <time>2022-04-09T12:40:15Z</time>
      </trkpt>
      <trkpt lat="48.2939" lon="6.83063">
        <ele>604.81</ele>
        <time>2022-04-09T12:40:18Z</time>
      </trkpt>
      <trkpt lat="48.2939" lon="6.83063">
        <ele>600</ele>
        <time>2022-04-09T12:40:19Z</time>
      </trkpt>
      <trkpt lat="48.2939" lon="6.83063">
        <ele>600</ele>
        <time>2022-04-09T12:40:20Z</time>
      </trkpt>
      <trkpt lat="48.2939" lon="6.83063">
        <ele>605.29</ele>
        <time>2022-04-09T12:40:23Z</time>
      </trkpt>
      <trkpt lat="48.2939" lon="6.83063">
        <ele>598.08</ele>
        <time>2022-04-09T12:40:24Z</time>
      </trkpt>
      <trkpt lat="48.2939" lon="6.83063">
        <ele>594.71</ele>
        <time>2022-04-09T12:40:25Z</time>
      </trkpt>
      <trkpt lat="48.29389" lon="6.83063">
        <ele>598.56</ele>
        <time>2022-04-09T12:40:26Z</time>
      </trkpt>
      <trkpt lat="48.29389" lon="6.83063">
        <ele>609.61</ele>
        <time>2022-04-09T12:40:30Z</time>
      </trkpt>
      <trkpt lat="48.29389" lon="6.83063">
        <ele>597.6</ele>
        <time>2022-04-09T12:40:31Z</time>
      </trkpt>
      <trkpt lat="48.29389" lon="6.83062">
        <ele>601.92</ele>
        <time>2022-04-09T12:40:36Z</time>
      </trkpt>
      <trkpt lat="48.29388" lon="6.83062">
        <ele>601.44</ele>
        <time>2022-04-09T12:40:46Z</time>
      </trkpt>
      <trkpt lat="48.29388" lon="6.83062">
        <ele>600.48</ele>
        <time>2022-04-09T12:40:48Z</time>
      </trkpt>
      <trkpt lat="48.29388" lon="6.83061">
        <ele>602.4</ele>
        <time>2022-04-09T12:41:03Z</time>
      </trkpt>
      <trkpt lat="48.29388" lon="6.83061">
        <ele>599.04</ele>
        <time>2022-04-09T12:41:05Z</time>
      </trkpt>
      <trkpt lat="48.29388" lon="6.83061">
        <ele>599.04</ele>
        <time>2022-04-09T12:41:06Z</time>
      </trkpt>
      <trkpt lat="48.29388" lon="6.83061">
        <ele>604.81</ele>
        <time>2022-04-09T12:41:12Z</time>
      </trkpt>
      <trkpt lat="48.29388" lon="6.83061">
        <ele>601.44</ele>
        <time>2022-04-09T12:41:13Z</time>
      </trkpt>
      <trkpt lat="48.29388" lon="6.83061">
        <ele>596.15</ele>
        <time>2022-04-09T12:41:14Z</time>
      </trkpt>
      <trkpt lat="48.29388" lon="6.83061">
        <ele>597.6</ele>
        <time>2022-04-09T12:41:15Z</time>
      </trkpt>
      <trkpt lat="48.29388" lon="6.83061">
        <ele>599.04</ele>
        <time>2022-04-09T12:41:17Z</time>
      </trkpt>
      <trkpt lat="48.29387" lon="6.8306">
        <ele>602.4</ele>
        <time>2022-04-09T12:41:20Z</time>
      </trkpt>
      <trkpt lat="48.29387" lon="6.8306">
        <ele>599.52</ele>
        <time>2022-04-09T12:41:21Z</time>
      </trkpt>
      <trkpt lat="48.29387" lon="6.83059">
        <ele>603.36</ele>
        <time>2022-04-09T12:41:37Z</time>
      </trkpt>
      <trkpt lat="48.29387" lon="6.83059">
        <ele>599.52</ele>
        <time>2022-04-09T12:41:38Z</time>
      </trkpt>
      <trkpt lat="48.29387" lon="6.83059">
        <ele>605.29</ele>
        <time>2022-04-09T12:41:42Z</time>
      </trkpt>
      <trkpt lat="48.29387" lon="6.83059">
        <ele>598.56</ele>
        <time>2022-04-09T12:41:43Z</time>
      </trkpt>
      <trkpt lat="48.29387" lon="6.83059">
        <ele>595.67</ele>
        <time>2022-04-09T12:41:47Z</time>
      </trkpt>
      <trkpt lat="48.29387" lon="6.83059">
        <ele>599.52</ele>
        <time>2022-04-09T12:41:48Z</time>
      </trkpt>
      <trkpt lat="48.29389" lon="6.8306">
        <ele>598.56</ele>
        <time>2022-04-09T12:41:56Z</time>
      </trkpt>
      <trkpt lat="48.2939" lon="6.8306">
        <ele>598.56</ele>
        <time>2022-04-09T12:41:57Z</time>
      </trkpt>
      <trkpt lat="48.29392" lon="6.83059">
        <ele>599.04</ele>
        <time>2022-04-09T12:41:58Z</time>
      </trkpt>
      <trkpt lat="48.29393" lon="6.83058">
        <ele>598.08</ele>
        <time>2022-04-09T12:41:59Z</time>
      </trkpt>
      <trkpt lat="48.29394" lon="6.83057">
        <ele>598.56</ele>
        <time>2022-04-09T12:42:00Z</time>
      </trkpt>
      <trkpt lat="48.29395" lon="6.83055">
        <ele>598.56</ele>
        <time>2022-04-09T12:42:01Z</time>
      </trkpt>
      <trkpt lat="48.29396" lon="6.83053">
        <ele>598.56</ele>
        <time>2022-04-09T12:42:02Z</time>
      </trkpt>
      <trkpt lat="48.29397" lon="6.83051">
        <ele>598.56</ele>
        <time>2022-04-09T12:42:03Z</time>
      </trkpt>
      <trkpt lat="48.29413" lon="6.83025">
        <ele>599.52</ele>
        <time>2022-04-09T12:42:15Z</time>
      </trkpt>
      <trkpt lat="48.29419" lon="6.83017">
        <ele>603.36</ele>
        <time>2022-04-09T12:42:23Z</time>
      </trkpt>
      <trkpt lat="48.29419" lon="6.83017">
        <ele>592.31</ele>
        <time>2022-04-09T12:42:24Z</time>
      </trkpt>
      <trkpt lat="48.29419" lon="6.83017">
        <ele>599.04</ele>
        <time>2022-04-09T12:42:25Z</time>
      </trkpt>
      <trkpt lat="48.2942" lon="6.83014">
        <ele>595.67</ele>
        <time>2022-04-09T12:42:38Z</time>
      </trkpt>
      <trkpt lat="48.2942" lon="6.83014">
        <ele>587.02</ele>
        <time>2022-04-09T12:42:39Z</time>
      </trkpt>
      <trkpt lat="48.2942" lon="6.83013">
        <ele>597.6</ele>
        <time>2022-04-09T12:42:40Z</time>
      </trkpt>
      <trkpt lat="48.29421" lon="6.83013">
        <ele>602.4</ele>
        <time>2022-04-09T12:42:41Z</time>
      </trkpt>
      <trkpt lat="48.29421" lon="6.83013">
        <ele>598.56</ele>
        <time>2022-04-09T12:42:42Z</time>
      </trkpt>
      <trkpt lat="48.29421" lon="6.83014">
        <ele>586.06</ele>
        <time>2022-04-09T12:42:46Z</time>
      </trkpt>
      <trkpt lat="48.2942" lon="6.83014">
        <ele>609.61</ele>
        <time>2022-04-09T12:42:47Z</time>
      </trkpt>
      <trkpt lat="48.2942" lon="6.83014">
        <ele>590.39</ele>
        <time>2022-04-09T12:42:48Z</time>
      </trkpt>
      <trkpt lat="48.2942" lon="6.83014">
        <ele>611.06</ele>
        <time>2022-04-09T12:42:49Z</time>
      </trkpt>
      <trkpt lat="48.2942" lon="6.83015">
        <ele>597.6</ele>
        <time>2022-04-09T12:42:50Z</time>
      </trkpt>
      <trkpt lat="48.29418" lon="6.83018">
        <ele>588.46</ele>
        <time>2022-04-09T12:43:01Z</time>
      </trkpt>
      <trkpt lat="48.29417" lon="6.83018">
        <ele>607.69</ele>
        <time>2022-04-09T12:43:02Z</time>
      </trkpt>
      <trkpt lat="48.29417" lon="6.83018">
        <ele>598.56</ele>
        <time>2022-04-09T12:43:03Z</time>
      </trkpt>
      <trkpt lat="48.29416" lon="6.8302">
        <ele>595.67</ele>
        <time>2022-04-09T12:43:13Z</time>
      </trkpt>
      <trkpt lat="48.29416" lon="6.8302">
        <ele>598.56</ele>
        <time>2022-04-09T12:43:14Z</time>
      </trkpt>
      <trkpt lat="48.29415" lon="6.8302">
        <ele>599.52</ele>
        <time>2022-04-09T12:43:26Z</time>
      </trkpt>
      <trkpt lat="48.29415" lon="6.83019">
        <ele>598.56</ele>
        <time>2022-04-09T12:43:28Z</time>
      </trkpt>
      <trkpt lat="48.29415" lon="6.83019">
        <ele>601.92</ele>
        <time>2022-04-09T12:43:29Z</time>
      </trkpt>
      <trkpt lat="48.29415" lon="6.83019">
        <ele>597.6</ele>
        <time>2022-04-09T12:43:30Z</time>
      </trkpt>
      <trkpt lat="48.29415" lon="6.83019">
        <ele>602.4</ele>
        <time>2022-04-09T12:43:32Z</time>
      </trkpt>
      <trkpt lat="48.29416" lon="6.83018">
        <ele>595.19</ele>
        <time>2022-04-09T12:43:33Z</time>
      </trkpt>
      <trkpt lat="48.29416" lon="6.83018">
        <ele>605.29</ele>
        <time>2022-04-09T12:43:36Z</time>
      </trkpt>
      <trkpt lat="48.29416" lon="6.83018">
        <ele>598.08</ele>
        <time>2022-04-09T12:43:37Z</time>
      </trkpt>
      <trkpt lat="48.29418" lon="6.83017">
        <ele>595.19</ele>
        <time>2022-04-09T12:43:45Z</time>
      </trkpt>
      <trkpt lat="48.29419" lon="6.83017">
        <ele>598.08</ele>
        <time>2022-04-09T12:43:46Z</time>
      </trkpt>
      <trkpt lat="48.29427" lon="6.8301">
        <ele>597.12</ele>
        <time>2022-04-09T12:44:00Z</time>
      </trkpt>
      <trkpt lat="48.29429" lon="6.83008">
        <ele>597.6</ele>
        <time>2022-04-09T12:44:01Z</time>
      </trkpt>
      <trkpt lat="48.29431" lon="6.83005">
        <ele>597.6</ele>
        <time>2022-04-09T12:44:02Z</time>
      </trkpt>
      <trkpt lat="48.29433" lon="6.83003">
        <ele>597.6</ele>
        <time>2022-04-09T12:44:03Z</time>
      </trkpt>
      <trkpt lat="48.29436" lon="6.83001">
        <ele>597.6</ele>
        <time>2022-04-09T12:44:04Z</time>
      </trkpt>
      <trkpt lat="48.29455" lon="6.8298">
        <ele>597.6</ele>
        <time>2022-04-09T12:44:11Z</time>
      </trkpt>
      <trkpt lat="48.29458" lon="6.82974">
        <ele>597.12</ele>
        <time>2022-04-09T12:44:13Z</time>
      </trkpt>
      <trkpt lat="48.29461" lon="6.8297">
        <ele>601.44</ele>
        <time>2022-04-09T12:44:14Z</time>
      </trkpt>
      <trkpt lat="48.29463" lon="6.82966">
        <ele>595.19</ele>
        <time>2022-04-09T12:44:15Z</time>
      </trkpt>
      <trkpt lat="48.29468" lon="6.82957">
        <ele>608.65</ele>
        <time>2022-04-09T12:44:18Z</time>
      </trkpt>
      <trkpt lat="48.29469" lon="6.82955">
        <ele>596.64</ele>
        <time>2022-04-09T12:44:19Z</time>
      </trkpt>
      <trkpt lat="48.29471" lon="6.82949">
        <ele>597.6</ele>
        <time>2022-04-09T12:44:21Z</time>
      </trkpt>
      <trkpt lat="48.29471" lon="6.82946">
        <ele>597.6</ele>
        <time>2022-04-09T12:44:22Z</time>
      </trkpt>
      <trkpt lat="48.29472" lon="6.82943">
        <ele>597.6</ele>
        <time>2022-04-09T12:44:23Z</time>
      </trkpt>
      <trkpt lat="48.2948" lon="6.82914">
        <ele>598.08</ele>
        <time>2022-04-09T12:44:36Z</time>
      </trkpt>
      <trkpt lat="48.2948" lon="6.82913">
        <ele>602.88</ele>
        <time>2022-04-09T12:44:38Z</time>
      </trkpt>
      <trkpt lat="48.2948" lon="6.82913">
        <ele>596.15</ele>
        <time>2022-04-09T12:44:40Z</time>
      </trkpt>
      <trkpt lat="48.2948" lon="6.82913">
        <ele>597.12</ele>
        <time>2022-04-09T12:44:41Z</time>
      </trkpt>
      <trkpt lat="48.2948" lon="6.82913">
        <ele>611.06</ele>
        <time>2022-04-09T12:44:42Z</time>
      </trkpt>
      <trkpt lat="48.2948" lon="6.82913">
        <ele>599.04</ele>
        <time>2022-04-09T12:44:43Z</time>
      </trkpt>
      <trkpt lat="48.2948" lon="6.82913">
        <ele>608.17</ele>
        <time>2022-04-09T12:44:44Z</time>
      </trkpt>
      <trkpt lat="48.2948" lon="6.82913">
        <ele>597.6</ele>
        <time>2022-04-09T12:44:45Z</time>
      </trkpt>
      <trkpt lat="48.2948" lon="6.82913">
        <ele>587.02</ele>
        <time>2022-04-09T12:44:46Z</time>
      </trkpt>
      <trkpt lat="48.2948" lon="6.82913">
        <ele>608.17</ele>
        <time>2022-04-09T12:44:47Z</time>
      </trkpt>
      <trkpt lat="48.2948" lon="6.82913">
        <ele>599.04</ele>
        <time>2022-04-09T12:44:48Z</time>
      </trkpt>
      <trkpt lat="48.2948" lon="6.82913">
        <ele>609.61</ele>
        <time>2022-04-09T12:44:49Z</time>
      </trkpt>
      <trkpt lat="48.2948" lon="6.82913">
        <ele>592.79</ele>
        <time>2022-04-09T12:44:50Z</time>
      </trkpt>
      <trkpt lat="48.2948" lon="6.82913">
        <ele>593.27</ele>
        <time>2022-04-09T12:44:51Z</time>
      </trkpt>
      <trkpt lat="48.2948" lon="6.82913">
        <ele>600.48</ele>
        <time>2022-04-09T12:44:52Z</time>
      </trkpt>
      <trkpt lat="48.2948" lon="6.82913">
        <ele>598.56</ele>
        <time>2022-04-09T12:44:53Z</time>
      </trkpt>
      <trkpt lat="48.2948" lon="6.82913">
        <ele>592.79</ele>
        <time>2022-04-09T12:44:54Z</time>
      </trkpt>
      <trkpt lat="48.2948" lon="6.82913">
        <ele>598.08</ele>
        <time>2022-04-09T12:44:55Z</time>
      </trkpt>
      <trkpt lat="48.2948" lon="6.82913">
        <ele>603.85</ele>
        <time>2022-04-09T12:44:56Z</time>
      </trkpt>
      <trkpt lat="48.29481" lon="6.82913">
        <ele>599.52</ele>
        <time>2022-04-09T12:44:57Z</time>
      </trkpt>
      <trkpt lat="48.29481" lon="6.82913">
        <ele>604.33</ele>
        <time>2022-04-09T12:45:01Z</time>
      </trkpt>
      <trkpt lat="48.29481" lon="6.82913">
        <ele>594.71</ele>
        <time>2022-04-09T12:45:02Z</time>
      </trkpt>
      <trkpt lat="48.29481" lon="6.82913">
        <ele>599.04</ele>
        <time>2022-04-09T12:45:04Z</time>
      </trkpt>
      <trkpt lat="48.29481" lon="6.82913">
        <ele>591.35</ele>
        <time>2022-04-09T12:45:05Z</time>
      </trkpt>
      <trkpt lat="48.29481" lon="6.82913">
        <ele>597.6</ele>
        <time>2022-04-09T12:45:06Z</time>
      </trkpt>
      <trkpt lat="48.29481" lon="6.82913">
        <ele>606.25</ele>
        <time>2022-04-09T12:45:09Z</time>
      </trkpt>
      <trkpt lat="48.29481" lon="6.82913">
        <ele>600.96</ele>
        <time>2022-04-09T12:45:10Z</time>
      </trkpt>
      <trkpt lat="48.29481" lon="6.82913">
        <ele>596.64</ele>
        <time>2022-04-09T12:45:12Z</time>
      </trkpt>
      <trkpt lat="48.29481" lon="6.82913">
        <ele>593.75</ele>
        <time>2022-04-09T12:45:13Z</time>
      </trkpt>
      <trkpt lat="48.29481" lon="6.82913">
        <ele>599.04</ele>
        <time>2022-04-09T12:45:14Z</time>
      </trkpt>
      <trkpt lat="48.29481" lon="6.82913">
        <ele>605.29</ele>
        <time>2022-04-09T12:45:18Z</time>
      </trkpt>
      <trkpt lat="48.29481" lon="6.82913">
        <ele>598.56</ele>
        <time>2022-04-09T12:45:19Z</time>
      </trkpt>
      <trkpt lat="48.29481" lon="6.82913">
        <ele>590.39</ele>
        <time>2022-04-09T12:45:20Z</time>
      </trkpt>
      <trkpt lat="48.29481" lon="6.82913">
        <ele>600.48</ele>
        <time>2022-04-09T12:45:21Z</time>
      </trkpt>
      <trkpt lat="48.29481" lon="6.82913">
        <ele>603.85</ele>
        <time>2022-04-09T12:45:22Z</time>
      </trkpt>
      <trkpt lat="48.29481" lon="6.82913">
        <ele>597.12</ele>
        <time>2022-04-09T12:45:23Z</time>
      </trkpt>
      <trkpt lat="48.29481" lon="6.82913">
        <ele>597.6</ele>
        <time>2022-04-09T12:45:24Z</time>
      </trkpt>
      <trkpt lat="48.29481" lon="6.82913">
        <ele>605.77</ele>
        <time>2022-04-09T12:45:25Z</time>
      </trkpt>
      <trkpt lat="48.29481" lon="6.82913">
        <ele>598.56</ele>
        <time>2022-04-09T12:45:26Z</time>
      </trkpt>
      <trkpt lat="48.29481" lon="6.82913">
        <ele>604.33</ele>
        <time>2022-04-09T12:45:28Z</time>
      </trkpt>
      <trkpt lat="48.29481" lon="6.82913">
        <ele>599.04</ele>
        <time>2022-04-09T12:45:29Z</time>
      </trkpt>
      <trkpt lat="48.29481" lon="6.82913">
        <ele>594.71</ele>
        <time>2022-04-09T12:45:30Z</time>
      </trkpt>
      <trkpt lat="48.2948" lon="6.82913">
        <ele>600</ele>
        <time>2022-04-09T12:45:31Z</time>
      </trkpt>
      <trkpt lat="48.2948" lon="6.82913">
        <ele>604.33</ele>
        <time>2022-04-09T12:45:32Z</time>
      </trkpt>
      <trkpt lat="48.2948" lon="6.82913">
        <ele>589.43</ele>
        <time>2022-04-09T12:45:33Z</time>
      </trkpt>
      <trkpt lat="48.2948" lon="6.82912">
        <ele>595.19</ele>
        <time>2022-04-09T12:45:34Z</time>
      </trkpt>
      <trkpt lat="48.2948" lon="6.82912">
        <ele>599.04</ele>
        <time>2022-04-09T12:45:35Z</time>
      </trkpt>
      <trkpt lat="48.29481" lon="6.82912">
        <ele>598.08</ele>
        <time>2022-04-09T12:45:36Z</time>
      </trkpt>
      <trkpt lat="48.29481" lon="6.82912">
        <ele>606.25</ele>
        <time>2022-04-09T12:45:38Z</time>
      </trkpt>
      <trkpt lat="48.29481" lon="6.82912">
        <ele>596.64</ele>
        <time>2022-04-09T12:45:39Z</time>
      </trkpt>
      <trkpt lat="48.29481" lon="6.82911">
        <ele>587.98</ele>
        <time>2022-04-09T12:45:40Z</time>
      </trkpt>
      <trkpt lat="48.29481" lon="6.82911">
        <ele>599.04</ele>
        <time>2022-04-09T12:45:41Z</time>
      </trkpt>
      <trkpt lat="48.29481" lon="6.82911">
        <ele>598.56</ele>
        <time>2022-04-09T12:45:42Z</time>
      </trkpt>
      <trkpt lat="48.29481" lon="6.82911">
        <ele>585.1</ele>
        <time>2022-04-09T12:45:43Z</time>
      </trkpt>
      <trkpt lat="48.29481" lon="6.8291">
        <ele>600</ele>
        <time>2022-04-09T12:45:44Z</time>
      </trkpt>
      <trkpt lat="48.29481" lon="6.8291">
        <ele>589.43</ele>
        <time>2022-04-09T12:45:46Z</time>
      </trkpt>
      <trkpt lat="48.29481" lon="6.8291">
        <ele>599.52</ele>
        <time>2022-04-09T12:45:47Z</time>
      </trkpt>
      <trkpt lat="48.29481" lon="6.8291">
        <ele>595.67</ele>
        <time>2022-04-09T12:45:52Z</time>
      </trkpt>
      <trkpt lat="48.29479" lon="6.82903">
        <ele>597.6</ele>
        <time>2022-04-09T12:46:02Z</time>
      </trkpt>
      <trkpt lat="48.29479" lon="6.82902">
        <ele>598.08</ele>
        <time>2022-04-09T12:46:03Z</time>
      </trkpt>
      <trkpt lat="48.29477" lon="6.829">
        <ele>597.6</ele>
        <time>2022-04-09T12:46:04Z</time>
      </trkpt>
      <trkpt lat="48.29475" lon="6.82899">
        <ele>597.6</ele>
        <time>2022-04-09T12:46:05Z</time>
      </trkpt>
      <trkpt lat="48.29473" lon="6.82897">
        <ele>597.12</ele>
        <time>2022-04-09T12:46:06Z</time>
      </trkpt>
      <trkpt lat="48.2947" lon="6.82894">
        <ele>597.12</ele>
        <time>2022-04-09T12:46:07Z</time>
      </trkpt>
      <trkpt lat="48.29459" lon="6.82866">
        <ele>593.75</ele>
        <time>2022-04-09T12:46:14Z</time>
      </trkpt>
      <trkpt lat="48.29457" lon="6.82862">
        <ele>597.6</ele>
        <time>2022-04-09T12:46:15Z</time>
      </trkpt>
      <trkpt lat="48.29448" lon="6.82847">
        <ele>596.64</ele>
        <time>2022-04-09T12:46:19Z</time>
      </trkpt>
      <trkpt lat="48.29445" lon="6.82844">
        <ele>596.15</ele>
        <time>2022-04-09T12:46:20Z</time>
      </trkpt>
      <trkpt lat="48.29442" lon="6.82841">
        <ele>596.64</ele>
        <time>2022-04-09T12:46:21Z</time>
      </trkpt>
      <trkpt lat="48.29434" lon="6.82836">
        <ele>595.67</ele>
        <time>2022-04-09T12:46:23Z</time>
      </trkpt>
      <trkpt lat="48.2943" lon="6.82833">
        <ele>596.15</ele>
        <time>2022-04-09T12:46:24Z</time>
      </trkpt>
      <trkpt lat="48.29425" lon="6.82831">
        <ele>595.19</ele>
        <time>2022-04-09T12:46:25Z</time>
      </trkpt>
      <trkpt lat="48.29421" lon="6.82828">
        <ele>595.19</ele>
        <time>2022-04-09T12:46:26Z</time>
      </trkpt>
      <trkpt lat="48.29416" lon="6.82826">
        <ele>594.71</ele>
        <time>2022-04-09T12:46:27Z</time>
      </trkpt>
      <trkpt lat="48.2941" lon="6.82824">
        <ele>594.23</ele>
        <time>2022-04-09T12:46:28Z</time>
      </trkpt>
      <trkpt lat="48.29405" lon="6.82823">
        <ele>594.23</ele>
        <time>2022-04-09T12:46:29Z</time>
      </trkpt>
      <trkpt lat="48.2939" lon="6.8282">
        <ele>593.27</ele>
        <time>2022-04-09T12:46:32Z</time>
      </trkpt>
      <trkpt lat="48.29379" lon="6.82819">
        <ele>592.31</ele>
        <time>2022-04-09T12:46:34Z</time>
      </trkpt>
      <trkpt lat="48.29363" lon="6.82816">
        <ele>591.83</ele>
        <time>2022-04-09T12:46:37Z</time>
      </trkpt>
      <trkpt lat="48.29357" lon="6.82815">
        <ele>591.35</ele>
        <time>2022-04-09T12:46:38Z</time>
      </trkpt>
      <trkpt lat="48.29352" lon="6.82814">
        <ele>591.35</ele>
        <time>2022-04-09T12:46:39Z</time>
      </trkpt>
      <trkpt lat="48.29347" lon="6.82812">
        <ele>590.39</ele>
        <time>2022-04-09T12:46:40Z</time>
      </trkpt>
      <trkpt lat="48.29341" lon="6.8281">
        <ele>589.91</ele>
        <time>2022-04-09T12:46:41Z</time>
      </trkpt>
      <trkpt lat="48.29335" lon="6.82808">
        <ele>589.91</ele>
        <time>2022-04-09T12:46:42Z</time>
      </trkpt>
      <trkpt lat="48.29306" lon="6.82797">
        <ele>587.98</ele>
        <time>2022-04-09T12:46:47Z</time>
      </trkpt>
      <trkpt lat="48.29291" lon="6.82785">
        <ele>586.54</ele>
        <time>2022-04-09T12:46:50Z</time>
      </trkpt>
      <trkpt lat="48.29287" lon="6.82779">
        <ele>586.06</ele>
        <time>2022-04-09T12:46:51Z</time>
      </trkpt>
      <trkpt lat="48.29284" lon="6.82772">
        <ele>585.58</ele>
        <time>2022-04-09T12:46:52Z</time>
      </trkpt>
      <trkpt lat="48.29282" lon="6.82765">
        <ele>585.1</ele>
        <time>2022-04-09T12:46:53Z</time>
      </trkpt>
      <trkpt lat="48.29282" lon="6.82757">
        <ele>584.14</ele>
        <time>2022-04-09T12:46:54Z</time>
      </trkpt>
      <trkpt lat="48.29283" lon="6.82748">
        <ele>583.66</ele>
        <time>2022-04-09T12:46:55Z</time>
      </trkpt>
      <trkpt lat="48.29285" lon="6.8274">
        <ele>583.18</ele>
        <time>2022-04-09T12:46:56Z</time>
      </trkpt>
      <trkpt lat="48.29288" lon="6.82733">
        <ele>582.7</ele>
        <time>2022-04-09T12:46:57Z</time>
      </trkpt>
      <trkpt lat="48.29293" lon="6.82718">
        <ele>581.25</ele>
        <time>2022-04-09T12:46:59Z</time>
      </trkpt>
      <trkpt lat="48.29294" lon="6.82711">
        <ele>581.25</ele>
        <time>2022-04-09T12:47:00Z</time>
      </trkpt>
      <trkpt lat="48.29294" lon="6.82688">
        <ele>579.81</ele>
        <time>2022-04-09T12:47:03Z</time>
      </trkpt>
      <trkpt lat="48.29286" lon="6.82647">
        <ele>579.33</ele>
        <time>2022-04-09T12:47:08Z</time>
      </trkpt>
      <trkpt lat="48.29284" lon="6.8264">
        <ele>579.33</ele>
        <time>2022-04-09T12:47:09Z</time>
      </trkpt>
      <trkpt lat="48.29282" lon="6.82632">
        <ele>579.33</ele>
        <time>2022-04-09T12:47:10Z</time>
      </trkpt>
      <trkpt lat="48.2928" lon="6.82611">
        <ele>578.85</ele>
        <time>2022-04-09T12:47:13Z</time>
      </trkpt>
      <trkpt lat="48.2928" lon="6.82604">
        <ele>577.89</ele>
        <time>2022-04-09T12:47:14Z</time>
      </trkpt>
      <trkpt lat="48.29281" lon="6.82596">
        <ele>578.37</ele>
        <time>2022-04-09T12:47:15Z</time>
      </trkpt>
      <trkpt lat="48.29282" lon="6.82591">
        <ele>577.89</ele>
        <time>2022-04-09T12:47:16Z</time>
      </trkpt>
      <trkpt lat="48.29284" lon="6.82585">
        <ele>576.93</ele>
        <time>2022-04-09T12:47:17Z</time>
      </trkpt>
      <trkpt lat="48.29286" lon="6.8258">
        <ele>576.93</ele>
        <time>2022-04-09T12:47:18Z</time>
      </trkpt>
      <trkpt lat="48.29288" lon="6.82574">
        <ele>576.45</ele>
        <time>2022-04-09T12:47:19Z</time>
      </trkpt>
      <trkpt lat="48.2929" lon="6.8257">
        <ele>575.49</ele>
        <time>2022-04-09T12:47:20Z</time>
      </trkpt>
      <trkpt lat="48.29292" lon="6.82566">
        <ele>575.49</ele>
        <time>2022-04-09T12:47:21Z</time>
      </trkpt>
      <trkpt lat="48.29298" lon="6.82556">
        <ele>574.04</ele>
        <time>2022-04-09T12:47:24Z</time>
      </trkpt>
      <trkpt lat="48.29308" lon="6.82546">
        <ele>572.6</ele>
        <time>2022-04-09T12:47:27Z</time>
      </trkpt>
      <trkpt lat="48.2933" lon="6.82527">
        <ele>569.72</ele>
        <time>2022-04-09T12:47:35Z</time>
      </trkpt>
      <trkpt lat="48.29332" lon="6.82519">
        <ele>578.37</ele>
        <time>2022-04-09T12:47:42Z</time>
      </trkpt>
      <trkpt lat="48.29332" lon="6.82519">
        <ele>570.2</ele>
        <time>2022-04-09T12:47:43Z</time>
      </trkpt>
      <trkpt lat="48.29333" lon="6.82518">
        <ele>569.72</ele>
        <time>2022-04-09T12:47:44Z</time>
      </trkpt>
      <trkpt lat="48.29333" lon="6.82517">
        <ele>569.72</ele>
        <time>2022-04-09T12:47:45Z</time>
      </trkpt>
      <trkpt lat="48.2932" lon="6.82501">
        <ele>567.32</ele>
        <time>2022-04-09T12:47:51Z</time>
      </trkpt>
      <trkpt lat="48.29317" lon="6.82498">
        <ele>566.35</ele>
        <time>2022-04-09T12:47:52Z</time>
      </trkpt>
      <trkpt lat="48.29314" lon="6.82495">
        <ele>565.87</ele>
        <time>2022-04-09T12:47:53Z</time>
      </trkpt>
      <trkpt lat="48.29311" lon="6.82494">
        <ele>564.91</ele>
        <time>2022-04-09T12:47:54Z</time>
      </trkpt>
      <trkpt lat="48.29297" lon="6.82493">
        <ele>562.51</ele>
        <time>2022-04-09T12:47:58Z</time>
      </trkpt>
      <trkpt lat="48.29289" lon="6.82496">
        <ele>561.07</ele>
        <time>2022-04-09T12:48:00Z</time>
      </trkpt>
      <trkpt lat="48.29284" lon="6.82496">
        <ele>560.59</ele>
        <time>2022-04-09T12:48:01Z</time>
      </trkpt>
      <trkpt lat="48.29277" lon="6.82497">
        <ele>559.62</ele>
        <time>2022-04-09T12:48:02Z</time>
      </trkpt>
      <trkpt lat="48.29272" lon="6.825">
        <ele>559.14</ele>
        <time>2022-04-09T12:48:03Z</time>
      </trkpt>
      <trkpt lat="48.29256" lon="6.82508">
        <ele>557.22</ele>
        <time>2022-04-09T12:48:06Z</time>
      </trkpt>
      <trkpt lat="48.29232" lon="6.82524">
        <ele>554.34</ele>
        <time>2022-04-09T12:48:11Z</time>
      </trkpt>
      <trkpt lat="48.29216" lon="6.82541">
        <ele>551.93</ele>
        <time>2022-04-09T12:48:15Z</time>
      </trkpt>
      <trkpt lat="48.29213" lon="6.82546">
        <ele>551.45</ele>
        <time>2022-04-09T12:48:16Z</time>
      </trkpt>
      <trkpt lat="48.29205" lon="6.82558">
        <ele>549.53</ele>
        <time>2022-04-09T12:48:18Z</time>
      </trkpt>
      <trkpt lat="48.29201" lon="6.82566">
        <ele>549.05</ele>
        <time>2022-04-09T12:48:19Z</time>
      </trkpt>
      <trkpt lat="48.29188" lon="6.82589">
        <ele>547.13</ele>
        <time>2022-04-09T12:48:22Z</time>
      </trkpt>
      <trkpt lat="48.2918" lon="6.82606">
        <ele>545.69</ele>
        <time>2022-04-09T12:48:24Z</time>
      </trkpt>
      <trkpt lat="48.29164" lon="6.82637">
        <ele>543.76</ele>
        <time>2022-04-09T12:48:28Z</time>
      </trkpt>
      <trkpt lat="48.29161" lon="6.82641">
        <ele>543.76</ele>
        <time>2022-04-09T12:48:29Z</time>
      </trkpt>
      <trkpt lat="48.29159" lon="6.82645">
        <ele>543.28</ele>
        <time>2022-04-09T12:48:30Z</time>
      </trkpt>
      <trkpt lat="48.29157" lon="6.82648">
        <ele>543.28</ele>
        <time>2022-04-09T12:48:31Z</time>
      </trkpt>
      <trkpt lat="48.29154" lon="6.82651">
        <ele>542.8</ele>
        <time>2022-04-09T12:48:32Z</time>
      </trkpt>
      <trkpt lat="48.29152" lon="6.82654">
        <ele>543.28</ele>
        <time>2022-04-09T12:48:33Z</time>
      </trkpt>
      <trkpt lat="48.29149" lon="6.82656">
        <ele>542.8</ele>
        <time>2022-04-09T12:48:34Z</time>
      </trkpt>
      <trkpt lat="48.29146" lon="6.82657">
        <ele>542.32</ele>
        <time>2022-04-09T12:48:35Z</time>
      </trkpt>
      <trkpt lat="48.29132" lon="6.82662">
        <ele>542.8</ele>
        <time>2022-04-09T12:48:45Z</time>
      </trkpt>
      <trkpt lat="48.29122" lon="6.82667">
        <ele>543.28</ele>
        <time>2022-04-09T12:48:50Z</time>
      </trkpt>
      <trkpt lat="48.2912" lon="6.82668">
        <ele>543.28</ele>
        <time>2022-04-09T12:48:51Z</time>
      </trkpt>
      <trkpt lat="48.29117" lon="6.8267">
        <ele>543.76</ele>
        <time>2022-04-09T12:48:52Z</time>
      </trkpt>
      <trkpt lat="48.29114" lon="6.82671">
        <ele>543.76</ele>
        <time>2022-04-09T12:48:53Z</time>
      </trkpt>
      <trkpt lat="48.29112" lon="6.82672">
        <ele>543.76</ele>
        <time>2022-04-09T12:48:54Z</time>
      </trkpt>
      <trkpt lat="48.2911" lon="6.82673">
        <ele>543.76</ele>
        <time>2022-04-09T12:48:55Z</time>
      </trkpt>
      <trkpt lat="48.29108" lon="6.82674">
        <ele>544.24</ele>
        <time>2022-04-09T12:48:56Z</time>
      </trkpt>
      <trkpt lat="48.29106" lon="6.82676">
        <ele>544.24</ele>
        <time>2022-04-09T12:48:57Z</time>
      </trkpt>
      <trkpt lat="48.29104" lon="6.82677">
        <ele>544.72</ele>
        <time>2022-04-09T12:48:58Z</time>
      </trkpt>
      <trkpt lat="48.29101" lon="6.82677">
        <ele>545.2</ele>
        <time>2022-04-09T12:48:59Z</time>
      </trkpt>
      <trkpt lat="48.29099" lon="6.82678">
        <ele>545.2</ele>
        <time>2022-04-09T12:49:00Z</time>
      </trkpt>
      <trkpt lat="48.29097" lon="6.82679">
        <ele>545.69</ele>
        <time>2022-04-09T12:49:01Z</time>
      </trkpt>
      <trkpt lat="48.29095" lon="6.8268">
        <ele>546.17</ele>
        <time>2022-04-09T12:49:02Z</time>
      </trkpt>
      <trkpt lat="48.29092" lon="6.82682">
        <ele>546.17</ele>
        <time>2022-04-09T12:49:03Z</time>
      </trkpt>
      <trkpt lat="48.29091" lon="6.82684">
        <ele>546.17</ele>
        <time>2022-04-09T12:49:04Z</time>
      </trkpt>
      <trkpt lat="48.29089" lon="6.82685">
        <ele>546.65</ele>
        <time>2022-04-09T12:49:05Z</time>
      </trkpt>
      <trkpt lat="48.29087" lon="6.82687">
        <ele>546.65</ele>
        <time>2022-04-09T12:49:06Z</time>
      </trkpt>
      <trkpt lat="48.29085" lon="6.82688">
        <ele>546.65</ele>
        <time>2022-04-09T12:49:07Z</time>
      </trkpt>
      <trkpt lat="48.29084" lon="6.82689">
        <ele>547.13</ele>
        <time>2022-04-09T12:49:08Z</time>
      </trkpt>
      <trkpt lat="48.29083" lon="6.82689">
        <ele>546.65</ele>
        <time>2022-04-09T12:49:09Z</time>
      </trkpt>
      <trkpt lat="48.29081" lon="6.82689">
        <ele>547.61</ele>
        <time>2022-04-09T12:49:10Z</time>
      </trkpt>
      <trkpt lat="48.2908" lon="6.8269">
        <ele>547.61</ele>
        <time>2022-04-09T12:49:11Z</time>
      </trkpt>
      <trkpt lat="48.29063" lon="6.82696">
        <ele>549.05</ele>
        <time>2022-04-09T12:49:21Z</time>
      </trkpt>
      <trkpt lat="48.29061" lon="6.82695">
        <ele>549.05</ele>
        <time>2022-04-09T12:49:22Z</time>
      </trkpt>
      <trkpt lat="48.29061" lon="6.82694">
        <ele>549.53</ele>
        <time>2022-04-09T12:49:23Z</time>
      </trkpt>
      <trkpt lat="48.2906" lon="6.82692">
        <ele>549.53</ele>
        <time>2022-04-09T12:49:24Z</time>
      </trkpt>
      <trkpt lat="48.29059" lon="6.82691">
        <ele>550.01</ele>
        <time>2022-04-09T12:49:25Z</time>
      </trkpt>
      <trkpt lat="48.29058" lon="6.82689">
        <ele>550.01</ele>
        <time>2022-04-09T12:49:26Z</time>
      </trkpt>
      <trkpt lat="48.2904" lon="6.82664">
        <ele>551.45</ele>
        <time>2022-04-09T12:49:40Z</time>
      </trkpt>
      <trkpt lat="48.29038" lon="6.8266">
        <ele>551.93</ele>
        <time>2022-04-09T12:49:42Z</time>
      </trkpt>
      <trkpt lat="48.29038" lon="6.82659">
        <ele>551.45</ele>
        <time>2022-04-09T12:49:43Z</time>
      </trkpt>
      <trkpt lat="48.29037" lon="6.82657">
        <ele>551.93</ele>
        <time>2022-04-09T12:49:44Z</time>
      </trkpt>
      <trkpt lat="48.29036" lon="6.82655">
        <ele>551.93</ele>
        <time>2022-04-09T12:49:45Z</time>
      </trkpt>
      <trkpt lat="48.29034" lon="6.82654">
        <ele>551.93</ele>
        <time>2022-04-09T12:49:46Z</time>
      </trkpt>
      <trkpt lat="48.29033" lon="6.82652">
        <ele>551.45</ele>
        <time>2022-04-09T12:49:47Z</time>
      </trkpt>
      <trkpt lat="48.29032" lon="6.82651">
        <ele>552.41</ele>
        <time>2022-04-09T12:49:48Z</time>
      </trkpt>
      <trkpt lat="48.29029" lon="6.82648">
        <ele>552.9</ele>
        <time>2022-04-09T12:49:50Z</time>
      </trkpt>
      <trkpt lat="48.29028" lon="6.82646">
        <ele>552.9</ele>
        <time>2022-04-09T12:49:51Z</time>
      </trkpt>
      <trkpt lat="48.29028" lon="6.82644">
        <ele>552.41</ele>
        <time>2022-04-09T12:49:52Z</time>
      </trkpt>
      <trkpt lat="48.29027" lon="6.82642">
        <ele>552.9</ele>
        <time>2022-04-09T12:49:53Z</time>
      </trkpt>
      <trkpt lat="48.29026" lon="6.82641">
        <ele>552.9</ele>
        <time>2022-04-09T12:49:54Z</time>
      </trkpt>
      <trkpt lat="48.29025" lon="6.82639">
        <ele>553.38</ele>
        <time>2022-04-09T12:49:55Z</time>
      </trkpt>
      <trkpt lat="48.29024" lon="6.82637">
        <ele>552.9</ele>
        <time>2022-04-09T12:49:56Z</time>
      </trkpt>
      <trkpt lat="48.29023" lon="6.82635">
        <ele>553.38</ele>
        <time>2022-04-09T12:49:57Z</time>
      </trkpt>
      <trkpt lat="48.29022" lon="6.82634">
        <ele>553.38</ele>
        <time>2022-04-09T12:49:58Z</time>
      </trkpt>
      <trkpt lat="48.29021" lon="6.82632">
        <ele>553.38</ele>
        <time>2022-04-09T12:49:59Z</time>
      </trkpt>
      <trkpt lat="48.29019" lon="6.82631">
        <ele>553.86</ele>
        <time>2022-04-09T12:50:00Z</time>
      </trkpt>
      <trkpt lat="48.29018" lon="6.82629">
        <ele>553.86</ele>
        <time>2022-04-09T12:50:01Z</time>
      </trkpt>
      <trkpt lat="48.29017" lon="6.82628">
        <ele>553.86</ele>
        <time>2022-04-09T12:50:02Z</time>
      </trkpt>
      <trkpt lat="48.29017" lon="6.82626">
        <ele>553.86</ele>
        <time>2022-04-09T12:50:03Z</time>
      </trkpt>
      <trkpt lat="48.29012" lon="6.8262">
        <ele>554.34</ele>
        <time>2022-04-09T12:50:08Z</time>
      </trkpt>
      <trkpt lat="48.29011" lon="6.82618">
        <ele>554.82</ele>
        <time>2022-04-09T12:50:09Z</time>
      </trkpt>
      <trkpt lat="48.2901" lon="6.82616">
        <ele>554.82</ele>
        <time>2022-04-09T12:50:10Z</time>
      </trkpt>
      <trkpt lat="48.29009" lon="6.82614">
        <ele>554.34</ele>
        <time>2022-04-09T12:50:11Z</time>
      </trkpt>
      <trkpt lat="48.29008" lon="6.82612">
        <ele>554.34</ele>
        <time>2022-04-09T12:50:12Z</time>
      </trkpt>
      <trkpt lat="48.28999" lon="6.82582">
        <ele>556.74</ele>
        <time>2022-04-09T12:50:25Z</time>
      </trkpt>
      <trkpt lat="48.28999" lon="6.82581">
        <ele>556.74</ele>
        <time>2022-04-09T12:50:26Z</time>
      </trkpt>
      <trkpt lat="48.29" lon="6.82575">
        <ele>557.7</ele>
        <time>2022-04-09T12:50:30Z</time>
      </trkpt>
      <trkpt lat="48.28999" lon="6.82548">
        <ele>558.18</ele>
        <time>2022-04-09T12:50:41Z</time>
      </trkpt>
      <trkpt lat="48.28999" lon="6.82543">
        <ele>558.18</ele>
        <time>2022-04-09T12:50:44Z</time>
      </trkpt>
      <trkpt lat="48.28996" lon="6.82527">
        <ele>559.14</ele>
        <time>2022-04-09T12:50:53Z</time>
      </trkpt>
      <trkpt lat="48.28995" lon="6.8251">
        <ele>561.07</ele>
        <time>2022-04-09T12:51:01Z</time>
      </trkpt>
      <trkpt lat="48.2899" lon="6.8248">
        <ele>562.99</ele>
        <time>2022-04-09T12:51:14Z</time>
      </trkpt>
      <trkpt lat="48.2899" lon="6.82474">
        <ele>563.47</ele>
        <time>2022-04-09T12:51:17Z</time>
      </trkpt>
      <trkpt lat="48.28986" lon="6.82453">
        <ele>564.91</ele>
        <time>2022-04-09T12:51:28Z</time>
      </trkpt>
      <trkpt lat="48.28986" lon="6.8245">
        <ele>565.39</ele>
        <time>2022-04-09T12:51:30Z</time>
      </trkpt>
      <trkpt lat="48.28985" lon="6.82447">
        <ele>565.39</ele>
        <time>2022-04-09T12:51:31Z</time>
      </trkpt>
      <trkpt lat="48.28985" lon="6.82446">
        <ele>565.87</ele>
        <time>2022-04-09T12:51:32Z</time>
      </trkpt>
      <trkpt lat="48.2898" lon="6.82419">
        <ele>566.83</ele>
        <time>2022-04-09T12:51:44Z</time>
      </trkpt>
      <trkpt lat="48.28975" lon="6.82404">
        <ele>568.28</ele>
        <time>2022-04-09T12:51:51Z</time>
      </trkpt>
      <trkpt lat="48.28966" lon="6.82391">
        <ele>569.72</ele>
        <time>2022-04-09T12:52:00Z</time>
      </trkpt>
      <trkpt lat="48.2895" lon="6.82392">
        <ele>570.2</ele>
        <time>2022-04-09T12:52:12Z</time>
      </trkpt>
      <trkpt lat="48.28942" lon="6.82394">
        <ele>571.16</ele>
        <time>2022-04-09T12:52:17Z</time>
      </trkpt>
      <trkpt lat="48.28938" lon="6.82391">
        <ele>571.64</ele>
        <time>2022-04-09T12:52:20Z</time>
      </trkpt>
      <trkpt lat="48.28932" lon="6.82375">
        <ele>573.08</ele>
        <time>2022-04-09T12:52:30Z</time>
      </trkpt>
      <trkpt lat="48.28932" lon="6.82369">
        <ele>574.04</ele>
        <time>2022-04-09T12:52:34Z</time>
      </trkpt>
      <trkpt lat="48.28938" lon="6.82337">
        <ele>576.45</ele>
        <time>2022-04-09T12:52:51Z</time>
      </trkpt>
      <trkpt lat="48.28939" lon="6.82333">
        <ele>575.97</ele>
        <time>2022-04-09T12:52:53Z</time>
      </trkpt>
      <trkpt lat="48.28944" lon="6.82308">
        <ele>577.89</ele>
        <time>2022-04-09T12:53:07Z</time>
      </trkpt>
      <trkpt lat="48.28945" lon="6.82303">
        <ele>578.85</ele>
        <time>2022-04-09T12:53:10Z</time>
      </trkpt>
      <trkpt lat="48.28952" lon="6.82281">
        <ele>579.81</ele>
        <time>2022-04-09T12:53:24Z</time>
      </trkpt>
      <trkpt lat="48.28959" lon="6.82262">
        <ele>581.73</ele>
        <time>2022-04-09T12:53:36Z</time>
      </trkpt>
      <trkpt lat="48.2897" lon="6.82245">
        <ele>582.7</ele>
        <time>2022-04-09T12:53:49Z</time>
      </trkpt>
      <trkpt lat="48.2898" lon="6.82232">
        <ele>583.66</ele>
        <time>2022-04-09T12:54:01Z</time>
      </trkpt>
      <trkpt lat="48.28994" lon="6.82216">
        <ele>584.62</ele>
        <time>2022-04-09T12:54:11Z</time>
      </trkpt>
      <trkpt lat="48.28996" lon="6.82209">
        <ele>585.1</ele>
        <time>2022-04-09T12:54:15Z</time>
      </trkpt>
      <trkpt lat="48.28998" lon="6.82179">
        <ele>584.62</ele>
        <time>2022-04-09T12:54:24Z</time>
      </trkpt>
      <trkpt lat="48.28985" lon="6.82156">
        <ele>580.77</ele>
        <time>2022-04-09T12:54:31Z</time>
      </trkpt>
      <trkpt lat="48.28984" lon="6.82154">
        <ele>568.28</ele>
        <time>2022-04-09T12:54:32Z</time>
      </trkpt>
      <trkpt lat="48.28982" lon="6.82152">
        <ele>587.02</ele>
        <time>2022-04-09T12:54:33Z</time>
      </trkpt>
      <trkpt lat="48.28981" lon="6.8215">
        <ele>584.14</ele>
        <time>2022-04-09T12:54:34Z</time>
      </trkpt>
      <trkpt lat="48.28979" lon="6.82145">
        <ele>575.01</ele>
        <time>2022-04-09T12:54:36Z</time>
      </trkpt>
      <trkpt lat="48.28978" lon="6.82144">
        <ele>592.31</ele>
        <time>2022-04-09T12:54:37Z</time>
      </trkpt>
      <trkpt lat="48.28977" lon="6.82142">
        <ele>584.14</ele>
        <time>2022-04-09T12:54:38Z</time>
      </trkpt>
      <trkpt lat="48.28958" lon="6.82118">
        <ele>584.62</ele>
        <time>2022-04-09T12:54:51Z</time>
      </trkpt>
      <trkpt lat="48.28949" lon="6.82109">
        <ele>587.02</ele>
        <time>2022-04-09T12:54:56Z</time>
      </trkpt>
      <trkpt lat="48.28927" lon="6.82076">
        <ele>586.06</ele>
        <time>2022-04-09T12:55:09Z</time>
      </trkpt>
      <trkpt lat="48.28913" lon="6.8205">
        <ele>588.95</ele>
        <time>2022-04-09T12:55:19Z</time>
      </trkpt>
      <trkpt lat="48.28903" lon="6.82026">
        <ele>590.39</ele>
        <time>2022-04-09T12:55:29Z</time>
      </trkpt>
      <trkpt lat="48.28896" lon="6.82001">
        <ele>591.83</ele>
        <time>2022-04-09T12:55:41Z</time>
      </trkpt>
      <trkpt lat="48.28892" lon="6.81989">
        <ele>591.83</ele>
        <time>2022-04-09T12:55:45Z</time>
      </trkpt>
      <trkpt lat="48.2889" lon="6.81985">
        <ele>591.83</ele>
        <time>2022-04-09T12:55:47Z</time>
      </trkpt>
      <trkpt lat="48.28886" lon="6.81974">
        <ele>592.31</ele>
        <time>2022-04-09T12:55:51Z</time>
      </trkpt>
      <trkpt lat="48.28884" lon="6.81969">
        <ele>593.27</ele>
        <time>2022-04-09T12:55:53Z</time>
      </trkpt>
      <trkpt lat="48.2888" lon="6.8196">
        <ele>593.75</ele>
        <time>2022-04-09T12:55:57Z</time>
      </trkpt>
      <trkpt lat="48.28877" lon="6.81953">
        <ele>593.75</ele>
        <time>2022-04-09T12:56:01Z</time>
      </trkpt>
      <trkpt lat="48.28867" lon="6.81931">
        <ele>595.19</ele>
        <time>2022-04-09T12:56:12Z</time>
      </trkpt>
      <trkpt lat="48.28866" lon="6.81926">
        <ele>595.19</ele>
        <time>2022-04-09T12:56:14Z</time>
      </trkpt>
      <trkpt lat="48.28863" lon="6.81918">
        <ele>596.64</ele>
        <time>2022-04-09T12:56:18Z</time>
      </trkpt>
      <trkpt lat="48.28863" lon="6.81918">
        <ele>593.75</ele>
        <time>2022-04-09T12:56:19Z</time>
      </trkpt>
      <trkpt lat="48.28862" lon="6.81913">
        <ele>598.56</ele>
        <time>2022-04-09T12:56:21Z</time>
      </trkpt>
      <trkpt lat="48.28862" lon="6.81911">
        <ele>602.4</ele>
        <time>2022-04-09T12:56:22Z</time>
      </trkpt>
      <trkpt lat="48.28862" lon="6.81909">
        <ele>595.19</ele>
        <time>2022-04-09T12:56:23Z</time>
      </trkpt>
      <trkpt lat="48.28851" lon="6.81893">
        <ele>595.19</ele>
        <time>2022-04-09T12:56:31Z</time>
      </trkpt>
      <trkpt lat="48.2884" lon="6.81866">
        <ele>595.19</ele>
        <time>2022-04-09T12:56:42Z</time>
      </trkpt>
      <trkpt lat="48.28839" lon="6.81858">
        <ele>588.95</ele>
        <time>2022-04-09T12:56:47Z</time>
      </trkpt>
      <trkpt lat="48.28839" lon="6.81858">
        <ele>602.4</ele>
        <time>2022-04-09T12:56:48Z</time>
      </trkpt>
      <trkpt lat="48.28839" lon="6.81858">
        <ele>587.98</ele>
        <time>2022-04-09T12:56:49Z</time>
      </trkpt>
      <trkpt lat="48.28838" lon="6.81857">
        <ele>599.04</ele>
        <time>2022-04-09T12:56:50Z</time>
      </trkpt>
      <trkpt lat="48.28838" lon="6.81857">
        <ele>594.71</ele>
        <time>2022-04-09T12:56:51Z</time>
      </trkpt>
      <trkpt lat="48.28835" lon="6.81844">
        <ele>595.19</ele>
        <time>2022-04-09T12:57:00Z</time>
      </trkpt>
      <trkpt lat="48.28828" lon="6.8181">
        <ele>593.27</ele>
        <time>2022-04-09T12:57:09Z</time>
      </trkpt>
      <trkpt lat="48.28822" lon="6.81775">
        <ele>591.83</ele>
        <time>2022-04-09T12:57:15Z</time>
      </trkpt>
      <trkpt lat="48.28819" lon="6.81762">
        <ele>591.35</ele>
        <time>2022-04-09T12:57:17Z</time>
      </trkpt>
      <trkpt lat="48.28812" lon="6.81724">
        <ele>590.39</ele>
        <time>2022-04-09T12:57:24Z</time>
      </trkpt>
      <trkpt lat="48.28811" lon="6.81722">
        <ele>589.91</ele>
        <time>2022-04-09T12:57:25Z</time>
      </trkpt>
      <trkpt lat="48.28807" lon="6.81693">
        <ele>588.46</ele>
        <time>2022-04-09T12:57:30Z</time>
      </trkpt>
      <trkpt lat="48.28806" lon="6.81686">
        <ele>588.46</ele>
        <time>2022-04-09T12:57:31Z</time>
      </trkpt>
      <trkpt lat="48.28806" lon="6.81678">
        <ele>587.98</ele>
        <time>2022-04-09T12:57:32Z</time>
      </trkpt>
      <trkpt lat="48.28804" lon="6.81671">
        <ele>587.98</ele>
        <time>2022-04-09T12:57:33Z</time>
      </trkpt>
      <trkpt lat="48.28803" lon="6.81666">
        <ele>587.98</ele>
        <time>2022-04-09T12:57:34Z</time>
      </trkpt>
      <trkpt lat="48.28801" lon="6.81659">
        <ele>587.98</ele>
        <time>2022-04-09T12:57:35Z</time>
      </trkpt>
      <trkpt lat="48.288" lon="6.81651">
        <ele>587.98</ele>
        <time>2022-04-09T12:57:36Z</time>
      </trkpt>
      <trkpt lat="48.28799" lon="6.81644">
        <ele>587.5</ele>
        <time>2022-04-09T12:57:37Z</time>
      </trkpt>
      <trkpt lat="48.28797" lon="6.81637">
        <ele>587.5</ele>
        <time>2022-04-09T12:57:38Z</time>
      </trkpt>
      <trkpt lat="48.28794" lon="6.81622">
        <ele>587.02</ele>
        <time>2022-04-09T12:57:40Z</time>
      </trkpt>
      <trkpt lat="48.28792" lon="6.81614">
        <ele>586.54</ele>
        <time>2022-04-09T12:57:41Z</time>
      </trkpt>
      <trkpt lat="48.28784" lon="6.81561">
        <ele>584.62</ele>
        <time>2022-04-09T12:57:48Z</time>
      </trkpt>
      <trkpt lat="48.28783" lon="6.81554">
        <ele>585.58</ele>
        <time>2022-04-09T12:57:49Z</time>
      </trkpt>
      <trkpt lat="48.28776" lon="6.81522">
        <ele>584.14</ele>
        <time>2022-04-09T12:57:53Z</time>
      </trkpt>
      <trkpt lat="48.28774" lon="6.81514">
        <ele>583.66</ele>
        <time>2022-04-09T12:57:54Z</time>
      </trkpt>
      <trkpt lat="48.28771" lon="6.81505">
        <ele>583.18</ele>
        <time>2022-04-09T12:57:55Z</time>
      </trkpt>
      <trkpt lat="48.2876" lon="6.81472">
        <ele>581.73</ele>
        <time>2022-04-09T12:57:59Z</time>
      </trkpt>
      <trkpt lat="48.28752" lon="6.81456">
        <ele>582.22</ele>
        <time>2022-04-09T12:58:01Z</time>
      </trkpt>
      <trkpt lat="48.28747" lon="6.81451">
        <ele>582.22</ele>
        <time>2022-04-09T12:58:02Z</time>
      </trkpt>
      <trkpt lat="48.28743" lon="6.81445">
        <ele>582.22</ele>
        <time>2022-04-09T12:58:03Z</time>
      </trkpt>
      <trkpt lat="48.28726" lon="6.8142">
        <ele>581.25</ele>
        <time>2022-04-09T12:58:07Z</time>
      </trkpt>
      <trkpt lat="48.28689" lon="6.81372">
        <ele>579.33</ele>
        <time>2022-04-09T12:58:15Z</time>
      </trkpt>
      <trkpt lat="48.28684" lon="6.81365">
        <ele>578.37</ele>
        <time>2022-04-09T12:58:16Z</time>
      </trkpt>
      <trkpt lat="48.28642" lon="6.81312">
        <ele>577.41</ele>
        <time>2022-04-09T12:58:24Z</time>
      </trkpt>
      <trkpt lat="48.28637" lon="6.81306">
        <ele>576.93</ele>
        <time>2022-04-09T12:58:25Z</time>
      </trkpt>
      <trkpt lat="48.28624" lon="6.81287">
        <ele>576.45</ele>
        <time>2022-04-09T12:58:28Z</time>
      </trkpt>
      <trkpt lat="48.2862" lon="6.8128">
        <ele>576.45</ele>
        <time>2022-04-09T12:58:29Z</time>
      </trkpt>
      <trkpt lat="48.28617" lon="6.81273">
        <ele>576.45</ele>
        <time>2022-04-09T12:58:30Z</time>
      </trkpt>
      <trkpt lat="48.28615" lon="6.81265">
        <ele>575.97</ele>
        <time>2022-04-09T12:58:31Z</time>
      </trkpt>
      <trkpt lat="48.28612" lon="6.81257">
        <ele>575.49</ele>
        <time>2022-04-09T12:58:32Z</time>
      </trkpt>
      <trkpt lat="48.2861" lon="6.81248">
        <ele>574.53</ele>
        <time>2022-04-09T12:58:33Z</time>
      </trkpt>
      <trkpt lat="48.28607" lon="6.81239">
        <ele>574.04</ele>
        <time>2022-04-09T12:58:34Z</time>
      </trkpt>
      <trkpt lat="48.28598" lon="6.81212">
        <ele>572.6</ele>
        <time>2022-04-09T12:58:37Z</time>
      </trkpt>
      <trkpt lat="48.28577" lon="6.81163">
        <ele>568.76</ele>
        <time>2022-04-09T12:58:42Z</time>
      </trkpt>
      <trkpt lat="48.28566" lon="6.81142">
        <ele>567.32</ele>
        <time>2022-04-09T12:58:44Z</time>
      </trkpt>
      <trkpt lat="48.28561" lon="6.81131">
        <ele>565.87</ele>
        <time>2022-04-09T12:58:45Z</time>
      </trkpt>
      <trkpt lat="48.28555" lon="6.81121">
        <ele>565.87</ele>
        <time>2022-04-09T12:58:46Z</time>
      </trkpt>
      <trkpt lat="48.2854" lon="6.81091">
        <ele>563.95</ele>
        <time>2022-04-09T12:58:49Z</time>
      </trkpt>
      <trkpt lat="48.28525" lon="6.81062">
        <ele>559.62</ele>
        <time>2022-04-09T12:58:52Z</time>
      </trkpt>
      <trkpt lat="48.28506" lon="6.8102">
        <ele>556.74</ele>
        <time>2022-04-09T12:58:56Z</time>
      </trkpt>
      <trkpt lat="48.28492" lon="6.80988">
        <ele>553.38</ele>
        <time>2022-04-09T12:58:59Z</time>
      </trkpt>
      <trkpt lat="48.28476" lon="6.80954">
        <ele>550.49</ele>
        <time>2022-04-09T12:59:02Z</time>
      </trkpt>
      <trkpt lat="48.28458" lon="6.8092">
        <ele>547.13</ele>
        <time>2022-04-09T12:59:05Z</time>
      </trkpt>
      <trkpt lat="48.28437" lon="6.80869">
        <ele>543.76</ele>
        <time>2022-04-09T12:59:09Z</time>
      </trkpt>
      <trkpt lat="48.2843" lon="6.80849">
        <ele>542.32</ele>
        <time>2022-04-09T12:59:11Z</time>
      </trkpt>
      <trkpt lat="48.28414" lon="6.80795">
        <ele>539.44</ele>
        <time>2022-04-09T12:59:15Z</time>
      </trkpt>
      <trkpt lat="48.28408" lon="6.8077">
        <ele>538.48</ele>
        <time>2022-04-09T12:59:17Z</time>
      </trkpt>
      <trkpt lat="48.28407" lon="6.80758">
        <ele>537.51</ele>
        <time>2022-04-09T12:59:18Z</time>
      </trkpt>
      <trkpt lat="48.28406" lon="6.80746">
        <ele>537.51</ele>
        <time>2022-04-09T12:59:19Z</time>
      </trkpt>
      <trkpt lat="48.28404" lon="6.80723">
        <ele>536.07</ele>
        <time>2022-04-09T12:59:21Z</time>
      </trkpt>
      <trkpt lat="48.28404" lon="6.80711">
        <ele>535.59</ele>
        <time>2022-04-09T12:59:22Z</time>
      </trkpt>
      <trkpt lat="48.28409" lon="6.80677">
        <ele>535.11</ele>
        <time>2022-04-09T12:59:25Z</time>
      </trkpt>
      <trkpt lat="48.28411" lon="6.80667">
        <ele>533.67</ele>
        <time>2022-04-09T12:59:26Z</time>
      </trkpt>
      <trkpt lat="48.28415" lon="6.80658">
        <ele>533.67</ele>
        <time>2022-04-09T12:59:27Z</time>
      </trkpt>
      <trkpt lat="48.28419" lon="6.80651">
        <ele>532.71</ele>
        <time>2022-04-09T12:59:28Z</time>
      </trkpt>
      <trkpt lat="48.28424" lon="6.80644">
        <ele>533.67</ele>
        <time>2022-04-09T12:59:29Z</time>
      </trkpt>
      <trkpt lat="48.2843" lon="6.80639">
        <ele>533.67</ele>
        <time>2022-04-09T12:59:30Z</time>
      </trkpt>
      <trkpt lat="48.28435" lon="6.80636">
        <ele>533.67</ele>
        <time>2022-04-09T12:59:31Z</time>
      </trkpt>
      <trkpt lat="48.2844" lon="6.80634">
        <ele>533.67</ele>
        <time>2022-04-09T12:59:32Z</time>
      </trkpt>
      <trkpt lat="48.28445" lon="6.80631">
        <ele>533.67</ele>
        <time>2022-04-09T12:59:33Z</time>
      </trkpt>
      <trkpt lat="48.28463" lon="6.80623">
        <ele>535.59</ele>
        <time>2022-04-09T12:59:39Z</time>
      </trkpt>
      <trkpt lat="48.28465" lon="6.80622">
        <ele>535.59</ele>
        <time>2022-04-09T12:59:40Z</time>
      </trkpt>
      <trkpt lat="48.28466" lon="6.80621">
        <ele>535.59</ele>
        <time>2022-04-09T12:59:41Z</time>
      </trkpt>
      <trkpt lat="48.28468" lon="6.80619">
        <ele>535.59</ele>
        <time>2022-04-09T12:59:42Z</time>
      </trkpt>
      <trkpt lat="48.2847" lon="6.80618">
        <ele>536.07</ele>
        <time>2022-04-09T12:59:43Z</time>
      </trkpt>
      <trkpt lat="48.28485" lon="6.80614">
        <ele>537.99</ele>
        <time>2022-04-09T12:59:52Z</time>
      </trkpt>
      <trkpt lat="48.28487" lon="6.80613">
        <ele>537.99</ele>
        <time>2022-04-09T12:59:53Z</time>
      </trkpt>
      <trkpt lat="48.28493" lon="6.8061">
        <ele>538.48</ele>
        <time>2022-04-09T12:59:57Z</time>
      </trkpt>
      <trkpt lat="48.28494" lon="6.80609">
        <ele>538.48</ele>
        <time>2022-04-09T12:59:58Z</time>
      </trkpt>
      <trkpt lat="48.28496" lon="6.80608">
        <ele>538.96</ele>
        <time>2022-04-09T12:59:59Z</time>
      </trkpt>
      <trkpt lat="48.28498" lon="6.80606">
        <ele>539.44</ele>
        <time>2022-04-09T13:00:00Z</time>
      </trkpt>
      <trkpt lat="48.285" lon="6.80605">
        <ele>539.44</ele>
        <time>2022-04-09T13:00:01Z</time>
      </trkpt>
      <trkpt lat="48.28501" lon="6.80604">
        <ele>539.92</ele>
        <time>2022-04-09T13:00:02Z</time>
      </trkpt>
      <trkpt lat="48.2851" lon="6.80598">
        <ele>541.36</ele>
        <time>2022-04-09T13:00:09Z</time>
      </trkpt>
      <trkpt lat="48.28512" lon="6.80596">
        <ele>541.84</ele>
        <time>2022-04-09T13:00:10Z</time>
      </trkpt>
      <trkpt lat="48.28513" lon="6.80595">
        <ele>541.84</ele>
        <time>2022-04-09T13:00:11Z</time>
      </trkpt>
      <trkpt lat="48.28515" lon="6.80593">
        <ele>541.84</ele>
        <time>2022-04-09T13:00:12Z</time>
      </trkpt>
      <trkpt lat="48.28532" lon="6.80572">
        <ele>545.2</ele>
        <time>2022-04-09T13:00:24Z</time>
      </trkpt>
      <trkpt lat="48.28536" lon="6.80567">
        <ele>546.17</ele>
        <time>2022-04-09T13:00:27Z</time>
      </trkpt>
      <trkpt lat="48.28538" lon="6.80566">
        <ele>546.17</ele>
        <time>2022-04-09T13:00:28Z</time>
      </trkpt>
      <trkpt lat="48.28539" lon="6.80563">
        <ele>546.17</ele>
        <time>2022-04-09T13:00:29Z</time>
      </trkpt>
      <trkpt lat="48.28541" lon="6.80561">
        <ele>546.65</ele>
        <time>2022-04-09T13:00:30Z</time>
      </trkpt>
      <trkpt lat="48.28542" lon="6.80559">
        <ele>546.65</ele>
        <time>2022-04-09T13:00:31Z</time>
      </trkpt>
      <trkpt lat="48.28543" lon="6.80557">
        <ele>547.13</ele>
        <time>2022-04-09T13:00:32Z</time>
      </trkpt>
      <trkpt lat="48.28544" lon="6.80555">
        <ele>547.13</ele>
        <time>2022-04-09T13:00:33Z</time>
      </trkpt>
      <trkpt lat="48.28545" lon="6.80552">
        <ele>547.13</ele>
        <time>2022-04-09T13:00:34Z</time>
      </trkpt>
      <trkpt lat="48.28546" lon="6.8055">
        <ele>547.61</ele>
        <time>2022-04-09T13:00:35Z</time>
      </trkpt>
      <trkpt lat="48.28547" lon="6.80548">
        <ele>547.61</ele>
        <time>2022-04-09T13:00:36Z</time>
      </trkpt>
      <trkpt lat="48.28548" lon="6.80546">
        <ele>547.61</ele>
        <time>2022-04-09T13:00:37Z</time>
      </trkpt>
      <trkpt lat="48.2855" lon="6.80545">
        <ele>548.09</ele>
        <time>2022-04-09T13:00:38Z</time>
      </trkpt>
      <trkpt lat="48.28551" lon="6.80543">
        <ele>547.61</ele>
        <time>2022-04-09T13:00:39Z</time>
      </trkpt>
      <trkpt lat="48.28552" lon="6.8054">
        <ele>548.57</ele>
        <time>2022-04-09T13:00:40Z</time>
      </trkpt>
      <trkpt lat="48.28554" lon="6.80538">
        <ele>548.57</ele>
        <time>2022-04-09T13:00:41Z</time>
      </trkpt>
      <trkpt lat="48.28567" lon="6.80514">
        <ele>550.01</ele>
        <time>2022-04-09T13:00:54Z</time>
      </trkpt>
      <trkpt lat="48.28583" lon="6.80484">
        <ele>551.45</ele>
        <time>2022-04-09T13:01:08Z</time>
      </trkpt>
      <trkpt lat="48.28597" lon="6.80458">
        <ele>552.41</ele>
        <time>2022-04-09T13:01:20Z</time>
      </trkpt>
      <trkpt lat="48.28607" lon="6.80423">
        <ele>552.9</ele>
        <time>2022-04-09T13:01:33Z</time>
      </trkpt>
      <trkpt lat="48.28617" lon="6.80385">
        <ele>553.86</ele>
        <time>2022-04-09T13:01:45Z</time>
      </trkpt>
      <trkpt lat="48.28624" lon="6.80356">
        <ele>552.9</ele>
        <time>2022-04-09T13:01:53Z</time>
      </trkpt>
      <trkpt lat="48.2863" lon="6.80333">
        <ele>552.9</ele>
        <time>2022-04-09T13:01:57Z</time>
      </trkpt>
      <trkpt lat="48.28636" lon="6.80307">
        <ele>551.93</ele>
        <time>2022-04-09T13:02:01Z</time>
      </trkpt>
      <trkpt lat="48.28638" lon="6.80294">
        <ele>551.93</ele>
        <time>2022-04-09T13:02:03Z</time>
      </trkpt>
      <trkpt lat="48.28639" lon="6.80287">
        <ele>551.93</ele>
        <time>2022-04-09T13:02:04Z</time>
      </trkpt>
      <trkpt lat="48.28639" lon="6.80279">
        <ele>551.93</ele>
        <time>2022-04-09T13:02:05Z</time>
      </trkpt>
      <trkpt lat="48.2864" lon="6.80273">
        <ele>550.97</ele>
        <time>2022-04-09T13:02:06Z</time>
      </trkpt>
      <trkpt lat="48.2864" lon="6.80266">
        <ele>551.45</ele>
        <time>2022-04-09T13:02:07Z</time>
      </trkpt>
      <trkpt lat="48.2864" lon="6.80259">
        <ele>551.45</ele>
        <time>2022-04-09T13:02:08Z</time>
      </trkpt>
      <trkpt lat="48.28639" lon="6.80251">
        <ele>550.97</ele>
        <time>2022-04-09T13:02:09Z</time>
      </trkpt>
      <trkpt lat="48.28639" lon="6.80243">
        <ele>550.49</ele>
        <time>2022-04-09T13:02:10Z</time>
      </trkpt>
      <trkpt lat="48.28638" lon="6.80227">
        <ele>550.97</ele>
        <time>2022-04-09T13:02:12Z</time>
      </trkpt>
      <trkpt lat="48.28633" lon="6.80203">
        <ele>550.01</ele>
        <time>2022-04-09T13:02:15Z</time>
      </trkpt>
      <trkpt lat="48.28627" lon="6.80189">
        <ele>550.49</ele>
        <time>2022-04-09T13:02:17Z</time>
      </trkpt>
      <trkpt lat="48.28625" lon="6.80182">
        <ele>550.01</ele>
        <time>2022-04-09T13:02:18Z</time>
      </trkpt>
      <trkpt lat="48.28621" lon="6.80176">
        <ele>549.53</ele>
        <time>2022-04-09T13:02:19Z</time>
      </trkpt>
      <trkpt lat="48.28618" lon="6.8017">
        <ele>550.01</ele>
        <time>2022-04-09T13:02:20Z</time>
      </trkpt>
      <trkpt lat="48.28614" lon="6.80165">
        <ele>550.01</ele>
        <time>2022-04-09T13:02:21Z</time>
      </trkpt>
      <trkpt lat="48.28611" lon="6.80159">
        <ele>550.01</ele>
        <time>2022-04-09T13:02:22Z</time>
      </trkpt>
      <trkpt lat="48.28607" lon="6.80154">
        <ele>550.01</ele>
        <time>2022-04-09T13:02:23Z</time>
      </trkpt>
      <trkpt lat="48.28601" lon="6.80142">
        <ele>550.49</ele>
        <time>2022-04-09T13:02:25Z</time>
      </trkpt>
      <trkpt lat="48.28598" lon="6.80137">
        <ele>550.49</ele>
        <time>2022-04-09T13:02:26Z</time>
      </trkpt>
      <trkpt lat="48.28595" lon="6.80132">
        <ele>550.49</ele>
        <time>2022-04-09T13:02:27Z</time>
      </trkpt>
      <trkpt lat="48.28569" lon="6.80088">
        <ele>553.38</ele>
        <time>2022-04-09T13:02:38Z</time>
      </trkpt>
      <trkpt lat="48.28563" lon="6.80072">
        <ele>553.38</ele>
        <time>2022-04-09T13:02:42Z</time>
      </trkpt>
      <trkpt lat="48.28562" lon="6.80068">
        <ele>553.38</ele>
        <time>2022-04-09T13:02:43Z</time>
      </trkpt>
      <trkpt lat="48.28561" lon="6.80065">
        <ele>553.38</ele>
        <time>2022-04-09T13:02:44Z</time>
      </trkpt>
      <trkpt lat="48.2856" lon="6.80061">
        <ele>553.38</ele>
        <time>2022-04-09T13:02:45Z</time>
      </trkpt>
      <trkpt lat="48.28559" lon="6.80057">
        <ele>553.38</ele>
        <time>2022-04-09T13:02:46Z</time>
      </trkpt>
      <trkpt lat="48.28558" lon="6.80052">
        <ele>553.38</ele>
        <time>2022-04-09T13:02:47Z</time>
      </trkpt>
      <trkpt lat="48.28557" lon="6.80048">
        <ele>552.9</ele>
        <time>2022-04-09T13:02:48Z</time>
      </trkpt>
      <trkpt lat="48.28556" lon="6.80042">
        <ele>552.9</ele>
        <time>2022-04-09T13:02:49Z</time>
      </trkpt>
      <trkpt lat="48.28556" lon="6.80037">
        <ele>552.9</ele>
        <time>2022-04-09T13:02:50Z</time>
      </trkpt>
      <trkpt lat="48.28557" lon="6.80031">
        <ele>552.41</ele>
        <time>2022-04-09T13:02:51Z</time>
      </trkpt>
      <trkpt lat="48.28559" lon="6.80026">
        <ele>552.41</ele>
        <time>2022-04-09T13:02:52Z</time>
      </trkpt>
      <trkpt lat="48.28561" lon="6.80022">
        <ele>552.41</ele>
        <time>2022-04-09T13:02:53Z</time>
      </trkpt>
      <trkpt lat="48.28566" lon="6.80011">
        <ele>552.41</ele>
        <time>2022-04-09T13:02:55Z</time>
      </trkpt>
      <trkpt lat="48.28578" lon="6.79989">
        <ele>551.45</ele>
        <time>2022-04-09T13:02:59Z</time>
      </trkpt>
      <trkpt lat="48.28581" lon="6.79983">
        <ele>551.45</ele>
        <time>2022-04-09T13:03:00Z</time>
      </trkpt>
      <trkpt lat="48.28584" lon="6.79977">
        <ele>551.45</ele>
        <time>2022-04-09T13:03:01Z</time>
      </trkpt>
      <trkpt lat="48.28587" lon="6.7997">
        <ele>550.97</ele>
        <time>2022-04-09T13:03:02Z</time>
      </trkpt>
      <trkpt lat="48.28589" lon="6.79963">
        <ele>550.49</ele>
        <time>2022-04-09T13:03:03Z</time>
      </trkpt>
      <trkpt lat="48.28601" lon="6.79914">
        <ele>548.09</ele>
        <time>2022-04-09T13:03:09Z</time>
      </trkpt>
      <trkpt lat="48.28603" lon="6.79906">
        <ele>547.61</ele>
        <time>2022-04-09T13:03:10Z</time>
      </trkpt>
      <trkpt lat="48.2861" lon="6.79884">
        <ele>546.65</ele>
        <time>2022-04-09T13:03:13Z</time>
      </trkpt>
      <trkpt lat="48.28621" lon="6.79852">
        <ele>546.17</ele>
        <time>2022-04-09T13:03:17Z</time>
      </trkpt>
      <trkpt lat="48.28624" lon="6.79843">
        <ele>546.17</ele>
        <time>2022-04-09T13:03:18Z</time>
      </trkpt>
      <trkpt lat="48.28627" lon="6.79836">
        <ele>545.69</ele>
        <time>2022-04-09T13:03:19Z</time>
      </trkpt>
      <trkpt lat="48.28633" lon="6.79821">
        <ele>545.69</ele>
        <time>2022-04-09T13:03:21Z</time>
      </trkpt>
      <trkpt lat="48.28635" lon="6.79814">
        <ele>545.2</ele>
        <time>2022-04-09T13:03:22Z</time>
      </trkpt>
      <trkpt lat="48.28639" lon="6.79808">
        <ele>545.69</ele>
        <time>2022-04-09T13:03:23Z</time>
      </trkpt>
      <trkpt lat="48.28643" lon="6.798">
        <ele>545.2</ele>
        <time>2022-04-09T13:03:24Z</time>
      </trkpt>
      <trkpt lat="48.28647" lon="6.79792">
        <ele>544.72</ele>
        <time>2022-04-09T13:03:25Z</time>
      </trkpt>
      <trkpt lat="48.28655" lon="6.79779">
        <ele>543.76</ele>
        <time>2022-04-09T13:03:27Z</time>
      </trkpt>
      <trkpt lat="48.28658" lon="6.79772">
        <ele>543.76</ele>
        <time>2022-04-09T13:03:28Z</time>
      </trkpt>
      <trkpt lat="48.28663" lon="6.79762">
        <ele>543.28</ele>
        <time>2022-04-09T13:03:30Z</time>
      </trkpt>
      <trkpt lat="48.28666" lon="6.79756">
        <ele>542.8</ele>
        <time>2022-04-09T13:03:31Z</time>
      </trkpt>
      <trkpt lat="48.28669" lon="6.79748">
        <ele>542.32</ele>
        <time>2022-04-09T13:03:32Z</time>
      </trkpt>
      <trkpt lat="48.28672" lon="6.79741">
        <ele>541.84</ele>
        <time>2022-04-09T13:03:33Z</time>
      </trkpt>
      <trkpt lat="48.28674" lon="6.79734">
        <ele>541.84</ele>
        <time>2022-04-09T13:03:34Z</time>
      </trkpt>
      <trkpt lat="48.28677" lon="6.79725">
        <ele>541.84</ele>
        <time>2022-04-09T13:03:35Z</time>
      </trkpt>
      <trkpt lat="48.28686" lon="6.79703">
        <ele>540.4</ele>
        <time>2022-04-09T13:03:38Z</time>
      </trkpt>
      <trkpt lat="48.28692" lon="6.79686">
        <ele>538.96</ele>
        <time>2022-04-09T13:03:40Z</time>
      </trkpt>
      <trkpt lat="48.28696" lon="6.79679">
        <ele>538.96</ele>
        <time>2022-04-09T13:03:41Z</time>
      </trkpt>
      <trkpt lat="48.287" lon="6.79672">
        <ele>538.96</ele>
        <time>2022-04-09T13:03:42Z</time>
      </trkpt>
      <trkpt lat="48.28709" lon="6.79656">
        <ele>538.96</ele>
        <time>2022-04-09T13:03:44Z</time>
      </trkpt>
      <trkpt lat="48.28712" lon="6.79649">
        <ele>538.96</ele>
        <time>2022-04-09T13:03:45Z</time>
      </trkpt>
      <trkpt lat="48.28716" lon="6.79642">
        <ele>538.48</ele>
        <time>2022-04-09T13:03:46Z</time>
      </trkpt>
      <trkpt lat="48.28719" lon="6.79635">
        <ele>538.96</ele>
        <time>2022-04-09T13:03:47Z</time>
      </trkpt>
      <trkpt lat="48.28722" lon="6.79631">
        <ele>538.96</ele>
        <time>2022-04-09T13:03:48Z</time>
      </trkpt>
      <trkpt lat="48.28725" lon="6.79625">
        <ele>538.96</ele>
        <time>2022-04-09T13:03:49Z</time>
      </trkpt>
      <trkpt lat="48.28729" lon="6.7962">
        <ele>538.96</ele>
        <time>2022-04-09T13:03:50Z</time>
      </trkpt>
      <trkpt lat="48.28735" lon="6.79616">
        <ele>538.96</ele>
        <time>2022-04-09T13:03:51Z</time>
      </trkpt>
      <trkpt lat="48.28746" lon="6.79609">
        <ele>537.99</ele>
        <time>2022-04-09T13:03:53Z</time>
      </trkpt>
      <trkpt lat="48.28783" lon="6.79596">
        <ele>538.48</ele>
        <time>2022-04-09T13:04:00Z</time>
      </trkpt>
      <trkpt lat="48.28788" lon="6.79596">
        <ele>537.99</ele>
        <time>2022-04-09T13:04:01Z</time>
      </trkpt>
      <trkpt lat="48.28798" lon="6.79594">
        <ele>537.03</ele>
        <time>2022-04-09T13:04:03Z</time>
      </trkpt>
      <trkpt lat="48.28803" lon="6.79591">
        <ele>536.55</ele>
        <time>2022-04-09T13:04:04Z</time>
      </trkpt>
      <trkpt lat="48.28807" lon="6.79587">
        <ele>537.03</ele>
        <time>2022-04-09T13:04:05Z</time>
      </trkpt>
      <trkpt lat="48.28813" lon="6.79581">
        <ele>536.55</ele>
        <time>2022-04-09T13:04:06Z</time>
      </trkpt>
      <trkpt lat="48.28819" lon="6.79574">
        <ele>536.07</ele>
        <time>2022-04-09T13:04:07Z</time>
      </trkpt>
      <trkpt lat="48.28825" lon="6.79566">
        <ele>536.07</ele>
        <time>2022-04-09T13:04:08Z</time>
      </trkpt>
      <trkpt lat="48.28832" lon="6.79557">
        <ele>535.59</ele>
        <time>2022-04-09T13:04:09Z</time>
      </trkpt>
      <trkpt lat="48.28837" lon="6.79549">
        <ele>535.11</ele>
        <time>2022-04-09T13:04:10Z</time>
      </trkpt>
      <trkpt lat="48.28848" lon="6.79521">
        <ele>534.15</ele>
        <time>2022-04-09T13:04:13Z</time>
      </trkpt>
      <trkpt lat="48.28851" lon="6.79512">
        <ele>533.67</ele>
        <time>2022-04-09T13:04:14Z</time>
      </trkpt>
      <trkpt lat="48.28853" lon="6.79502">
        <ele>533.67</ele>
        <time>2022-04-09T13:04:15Z</time>
      </trkpt>
      <trkpt lat="48.28854" lon="6.79492">
        <ele>533.19</ele>
        <time>2022-04-09T13:04:16Z</time>
      </trkpt>
      <trkpt lat="48.28855" lon="6.79482">
        <ele>532.23</ele>
        <time>2022-04-09T13:04:17Z</time>
      </trkpt>
      <trkpt lat="48.28855" lon="6.79471">
        <ele>532.71</ele>
        <time>2022-04-09T13:04:18Z</time>
      </trkpt>
      <trkpt lat="48.28845" lon="6.79384">
        <ele>530.79</ele>
        <time>2022-04-09T13:04:27Z</time>
      </trkpt>
      <trkpt lat="48.28841" lon="6.79354">
        <ele>530.3</ele>
        <time>2022-04-09T13:04:30Z</time>
      </trkpt>
      <trkpt lat="48.28837" lon="6.79314">
        <ele>529.34</ele>
        <time>2022-04-09T13:04:34Z</time>
      </trkpt>
      <trkpt lat="48.28835" lon="6.79304">
        <ele>528.86</ele>
        <time>2022-04-09T13:04:35Z</time>
      </trkpt>
      <trkpt lat="48.28827" lon="6.79275">
        <ele>527.9</ele>
        <time>2022-04-09T13:04:38Z</time>
      </trkpt>
      <trkpt lat="48.28823" lon="6.79267">
        <ele>527.9</ele>
        <time>2022-04-09T13:04:39Z</time>
      </trkpt>
      <trkpt lat="48.2881" lon="6.79243">
        <ele>527.9</ele>
        <time>2022-04-09T13:04:42Z</time>
      </trkpt>
      <trkpt lat="48.28806" lon="6.79236">
        <ele>527.9</ele>
        <time>2022-04-09T13:04:43Z</time>
      </trkpt>
      <trkpt lat="48.28775" lon="6.7917">
        <ele>525.98</ele>
        <time>2022-04-09T13:04:51Z</time>
      </trkpt>
      <trkpt lat="48.2874" lon="6.79064">
        <ele>524.54</ele>
        <time>2022-04-09T13:05:03Z</time>
      </trkpt>
      <trkpt lat="48.28734" lon="6.79049">
        <ele>524.06</ele>
        <time>2022-04-09T13:05:05Z</time>
      </trkpt>
      <trkpt lat="48.28718" lon="6.79014">
        <ele>524.54</ele>
        <time>2022-04-09T13:05:10Z</time>
      </trkpt>
      <trkpt lat="48.28704" lon="6.78988">
        <ele>523.58</ele>
        <time>2022-04-09T13:05:14Z</time>
      </trkpt>
      <trkpt lat="48.28701" lon="6.78982">
        <ele>523.09</ele>
        <time>2022-04-09T13:05:15Z</time>
      </trkpt>
      <trkpt lat="48.28698" lon="6.78974">
        <ele>523.58</ele>
        <time>2022-04-09T13:05:16Z</time>
      </trkpt>
      <trkpt lat="48.28694" lon="6.7896">
        <ele>523.58</ele>
        <time>2022-04-09T13:05:18Z</time>
      </trkpt>
      <trkpt lat="48.28694" lon="6.78953">
        <ele>523.09</ele>
        <time>2022-04-09T13:05:19Z</time>
      </trkpt>
      <trkpt lat="48.28696" lon="6.78947">
        <ele>523.09</ele>
        <time>2022-04-09T13:05:20Z</time>
      </trkpt>
      <trkpt lat="48.28698" lon="6.78941">
        <ele>523.09</ele>
        <time>2022-04-09T13:05:21Z</time>
      </trkpt>
      <trkpt lat="48.287" lon="6.78937">
        <ele>522.61</ele>
        <time>2022-04-09T13:05:22Z</time>
      </trkpt>
      <trkpt lat="48.28702" lon="6.78935">
        <ele>522.61</ele>
        <time>2022-04-09T13:05:23Z</time>
      </trkpt>
      <trkpt lat="48.28704" lon="6.78933">
        <ele>523.09</ele>
        <time>2022-04-09T13:05:24Z</time>
      </trkpt>
      <trkpt lat="48.28706" lon="6.78932">
        <ele>523.09</ele>
        <time>2022-04-09T13:05:25Z</time>
      </trkpt>
      <trkpt lat="48.28709" lon="6.78932">
        <ele>523.09</ele>
        <time>2022-04-09T13:05:26Z</time>
      </trkpt>
      <trkpt lat="48.28755" lon="6.78907">
        <ele>521.17</ele>
        <time>2022-04-09T13:05:34Z</time>
      </trkpt>
      <trkpt lat="48.28774" lon="6.78897">
        <ele>520.69</ele>
        <time>2022-04-09T13:05:37Z</time>
      </trkpt>
      <trkpt lat="48.28779" lon="6.78895">
        <ele>520.69</ele>
        <time>2022-04-09T13:05:38Z</time>
      </trkpt>
      <trkpt lat="48.28785" lon="6.78892">
        <ele>520.21</ele>
        <time>2022-04-09T13:05:39Z</time>
      </trkpt>
      <trkpt lat="48.2879" lon="6.78888">
        <ele>519.73</ele>
        <time>2022-04-09T13:05:40Z</time>
      </trkpt>
      <trkpt lat="48.28796" lon="6.78882">
        <ele>519.73</ele>
        <time>2022-04-09T13:05:41Z</time>
      </trkpt>
      <trkpt lat="48.28801" lon="6.78876">
        <ele>519.73</ele>
        <time>2022-04-09T13:05:42Z</time>
      </trkpt>
      <trkpt lat="48.28817" lon="6.78861">
        <ele>519.25</ele>
        <time>2022-04-09T13:05:45Z</time>
      </trkpt>
      <trkpt lat="48.28822" lon="6.78856">
        <ele>519.25</ele>
        <time>2022-04-09T13:05:46Z</time>
      </trkpt>
      <trkpt lat="48.28854" lon="6.78839">
        <ele>520.69</ele>
        <time>2022-04-09T13:05:52Z</time>
      </trkpt>
      <trkpt lat="48.28859" lon="6.78838">
        <ele>520.69</ele>
        <time>2022-04-09T13:05:53Z</time>
      </trkpt>
      <trkpt lat="48.28863" lon="6.78837">
        <ele>520.69</ele>
        <time>2022-04-09T13:05:54Z</time>
      </trkpt>
      <trkpt lat="48.28875" lon="6.78839">
        <ele>521.17</ele>
        <time>2022-04-09T13:05:58Z</time>
      </trkpt>
      <trkpt lat="48.28888" lon="6.78851">
        <ele>520.69</ele>
        <time>2022-04-09T13:06:03Z</time>
      </trkpt>
      <trkpt lat="48.28925" lon="6.78873">
        <ele>521.65</ele>
        <time>2022-04-09T13:06:13Z</time>
      </trkpt>
      <trkpt lat="48.28966" lon="6.78897">
        <ele>522.13</ele>
        <time>2022-04-09T13:06:22Z</time>
      </trkpt>
      <trkpt lat="48.29004" lon="6.78911">
        <ele>522.13</ele>
        <time>2022-04-09T13:06:32Z</time>
      </trkpt>
      <trkpt lat="48.29018" lon="6.78914">
        <ele>520.69</ele>
        <time>2022-04-09T13:06:36Z</time>
      </trkpt>
      <trkpt lat="48.29024" lon="6.78914">
        <ele>520.69</ele>
        <time>2022-04-09T13:06:37Z</time>
      </trkpt>
      <trkpt lat="48.2903" lon="6.78912">
        <ele>519.73</ele>
        <time>2022-04-09T13:06:38Z</time>
      </trkpt>
      <trkpt lat="48.29037" lon="6.78909">
        <ele>520.21</ele>
        <time>2022-04-09T13:06:39Z</time>
      </trkpt>
      <trkpt lat="48.29046" lon="6.78905">
        <ele>519.73</ele>
        <time>2022-04-09T13:06:40Z</time>
      </trkpt>
      <trkpt lat="48.29051" lon="6.78901">
        <ele>519.25</ele>
        <time>2022-04-09T13:06:41Z</time>
      </trkpt>
      <trkpt lat="48.29056" lon="6.78896">
        <ele>519.73</ele>
        <time>2022-04-09T13:06:42Z</time>
      </trkpt>
      <trkpt lat="48.2906" lon="6.78891">
        <ele>519.25</ele>
        <time>2022-04-09T13:06:43Z</time>
      </trkpt>
      <trkpt lat="48.29065" lon="6.78885">
        <ele>519.25</ele>
        <time>2022-04-09T13:06:44Z</time>
      </trkpt>
      <trkpt lat="48.29069" lon="6.78879">
        <ele>519.25</ele>
        <time>2022-04-09T13:06:45Z</time>
      </trkpt>
      <trkpt lat="48.29072" lon="6.78873">
        <ele>518.77</ele>
        <time>2022-04-09T13:06:46Z</time>
      </trkpt>
      <trkpt lat="48.29074" lon="6.78866">
        <ele>518.77</ele>
        <time>2022-04-09T13:06:47Z</time>
      </trkpt>
      <trkpt lat="48.29086" lon="6.78837">
        <ele>519.25</ele>
        <time>2022-04-09T13:06:51Z</time>
      </trkpt>
      <trkpt lat="48.29095" lon="6.78815">
        <ele>519.25</ele>
        <time>2022-04-09T13:06:54Z</time>
      </trkpt>
      <trkpt lat="48.29098" lon="6.78809">
        <ele>519.25</ele>
        <time>2022-04-09T13:06:55Z</time>
      </trkpt>
      <trkpt lat="48.29101" lon="6.78803">
        <ele>518.77</ele>
        <time>2022-04-09T13:06:56Z</time>
      </trkpt>
      <trkpt lat="48.29103" lon="6.78795">
        <ele>518.77</ele>
        <time>2022-04-09T13:06:57Z</time>
      </trkpt>
      <trkpt lat="48.29105" lon="6.78789">
        <ele>519.25</ele>
        <time>2022-04-09T13:06:58Z</time>
      </trkpt>
      <trkpt lat="48.29107" lon="6.78783">
        <ele>519.25</ele>
        <time>2022-04-09T13:06:59Z</time>
      </trkpt>
      <trkpt lat="48.29108" lon="6.78778">
        <ele>519.73</ele>
        <time>2022-04-09T13:07:00Z</time>
      </trkpt>
      <trkpt lat="48.2911" lon="6.78762">
        <ele>519.73</ele>
        <time>2022-04-09T13:07:03Z</time>
      </trkpt>
      <trkpt lat="48.29107" lon="6.78751">
        <ele>519.73</ele>
        <time>2022-04-09T13:07:05Z</time>
      </trkpt>
      <trkpt lat="48.29106" lon="6.78746">
        <ele>520.21</ele>
        <time>2022-04-09T13:07:06Z</time>
      </trkpt>
      <trkpt lat="48.29105" lon="6.7874">
        <ele>520.21</ele>
        <time>2022-04-09T13:07:07Z</time>
      </trkpt>
      <trkpt lat="48.29104" lon="6.78734">
        <ele>520.21</ele>
        <time>2022-04-09T13:07:08Z</time>
      </trkpt>
      <trkpt lat="48.29104" lon="6.78729">
        <ele>520.21</ele>
        <time>2022-04-09T13:07:09Z</time>
      </trkpt>
      <trkpt lat="48.29104" lon="6.78725">
        <ele>520.21</ele>
        <time>2022-04-09T13:07:10Z</time>
      </trkpt>
      <trkpt lat="48.29104" lon="6.78721">
        <ele>519.73</ele>
        <time>2022-04-09T13:07:11Z</time>
      </trkpt>
      <trkpt lat="48.29103" lon="6.78717">
        <ele>520.21</ele>
        <time>2022-04-09T13:07:12Z</time>
      </trkpt>
      <trkpt lat="48.29102" lon="6.78713">
        <ele>519.73</ele>
        <time>2022-04-09T13:07:13Z</time>
      </trkpt>
      <trkpt lat="48.29101" lon="6.78709">
        <ele>520.21</ele>
        <time>2022-04-09T13:07:14Z</time>
      </trkpt>
      <trkpt lat="48.291" lon="6.78705">
        <ele>520.21</ele>
        <time>2022-04-09T13:07:15Z</time>
      </trkpt>
      <trkpt lat="48.29098" lon="6.78701">
        <ele>519.73</ele>
        <time>2022-04-09T13:07:16Z</time>
      </trkpt>
      <trkpt lat="48.29095" lon="6.78697">
        <ele>520.21</ele>
        <time>2022-04-09T13:07:17Z</time>
      </trkpt>
      <trkpt lat="48.29092" lon="6.78693">
        <ele>519.73</ele>
        <time>2022-04-09T13:07:18Z</time>
      </trkpt>
      <trkpt lat="48.29089" lon="6.78689">
        <ele>519.73</ele>
        <time>2022-04-09T13:07:19Z</time>
      </trkpt>
      <trkpt lat="48.29086" lon="6.78685">
        <ele>519.73</ele>
        <time>2022-04-09T13:07:20Z</time>
      </trkpt>
      <trkpt lat="48.29083" lon="6.7868">
        <ele>519.25</ele>
        <time>2022-04-09T13:07:21Z</time>
      </trkpt>
      <trkpt lat="48.29081" lon="6.78673">
        <ele>518.77</ele>
        <time>2022-04-09T13:07:22Z</time>
      </trkpt>
      <trkpt lat="48.29078" lon="6.78667">
        <ele>518.77</ele>
        <time>2022-04-09T13:07:23Z</time>
      </trkpt>
      <trkpt lat="48.29076" lon="6.78659">
        <ele>517.81</ele>
        <time>2022-04-09T13:07:24Z</time>
      </trkpt>
      <trkpt lat="48.29074" lon="6.78652">
        <ele>517.33</ele>
        <time>2022-04-09T13:07:25Z</time>
      </trkpt>
      <trkpt lat="48.29072" lon="6.78644">
        <ele>516.85</ele>
        <time>2022-04-09T13:07:26Z</time>
      </trkpt>
      <trkpt lat="48.29071" lon="6.78637">
        <ele>516.37</ele>
        <time>2022-04-09T13:07:27Z</time>
      </trkpt>
      <trkpt lat="48.29069" lon="6.78629">
        <ele>515.4</ele>
        <time>2022-04-09T13:07:28Z</time>
      </trkpt>
      <trkpt lat="48.29068" lon="6.78611">
        <ele>514.44</ele>
        <time>2022-04-09T13:07:30Z</time>
      </trkpt>
      <trkpt lat="48.29065" lon="6.78574">
        <ele>512.52</ele>
        <time>2022-04-09T13:07:34Z</time>
      </trkpt>
      <trkpt lat="48.29065" lon="6.78566">
        <ele>512.52</ele>
        <time>2022-04-09T13:07:35Z</time>
      </trkpt>
      <trkpt lat="48.29063" lon="6.78545">
        <ele>511.56</ele>
        <time>2022-04-09T13:07:39Z</time>
      </trkpt>
      <trkpt lat="48.29061" lon="6.78542">
        <ele>511.56</ele>
        <time>2022-04-09T13:07:40Z</time>
      </trkpt>
      <trkpt lat="48.29059" lon="6.78538">
        <ele>511.08</ele>
        <time>2022-04-09T13:07:41Z</time>
      </trkpt>
      <trkpt lat="48.29057" lon="6.78534">
        <ele>511.08</ele>
        <time>2022-04-09T13:07:42Z</time>
      </trkpt>
      <trkpt lat="48.29054" lon="6.78532">
        <ele>511.08</ele>
        <time>2022-04-09T13:07:43Z</time>
      </trkpt>
      <trkpt lat="48.29052" lon="6.78532">
        <ele>511.56</ele>
        <time>2022-04-09T13:07:44Z</time>
      </trkpt>
      <trkpt lat="48.2905" lon="6.78532">
        <ele>511.08</ele>
        <time>2022-04-09T13:07:45Z</time>
      </trkpt>
      <trkpt lat="48.29047" lon="6.78533">
        <ele>511.56</ele>
        <time>2022-04-09T13:07:46Z</time>
      </trkpt>
      <trkpt lat="48.29043" lon="6.78534">
        <ele>511.56</ele>
        <time>2022-04-09T13:07:48Z</time>
      </trkpt>
      <trkpt lat="48.29041" lon="6.78534">
        <ele>511.56</ele>
        <time>2022-04-09T13:07:49Z</time>
      </trkpt>
      <trkpt lat="48.29039" lon="6.78535">
        <ele>512.04</ele>
        <time>2022-04-09T13:07:50Z</time>
      </trkpt>
      <trkpt lat="48.29029" lon="6.78537">
        <ele>512.52</ele>
        <time>2022-04-09T13:07:54Z</time>
      </trkpt>
      <trkpt lat="48.29028" lon="6.78537">
        <ele>512.52</ele>
        <time>2022-04-09T13:07:55Z</time>
      </trkpt>
      <trkpt lat="48.29025" lon="6.78539">
        <ele>513</ele>
        <time>2022-04-09T13:07:57Z</time>
      </trkpt>
      <trkpt lat="48.29023" lon="6.78539">
        <ele>512.52</ele>
        <time>2022-04-09T13:07:58Z</time>
      </trkpt>
      <trkpt lat="48.2902" lon="6.7854">
        <ele>513</ele>
        <time>2022-04-09T13:07:59Z</time>
      </trkpt>
      <trkpt lat="48.29003" lon="6.78545">
        <ele>513.48</ele>
        <time>2022-04-09T13:08:05Z</time>
      </trkpt>
      <trkpt lat="48.28976" lon="6.78542">
        <ele>514.92</ele>
        <time>2022-04-09T13:08:15Z</time>
      </trkpt>
      <trkpt lat="48.28969" lon="6.78543">
        <ele>514.92</ele>
        <time>2022-04-09T13:08:18Z</time>
      </trkpt>
      <trkpt lat="48.28936" lon="6.78535">
        <ele>516.85</ele>
        <time>2022-04-09T13:08:29Z</time>
      </trkpt>
      <trkpt lat="48.28916" lon="6.7853">
        <ele>517.81</ele>
        <time>2022-04-09T13:08:35Z</time>
      </trkpt>
      <trkpt lat="48.28912" lon="6.78528">
        <ele>517.81</ele>
        <time>2022-04-09T13:08:36Z</time>
      </trkpt>
      <trkpt lat="48.28908" lon="6.78528">
        <ele>517.81</ele>
        <time>2022-04-09T13:08:37Z</time>
      </trkpt>
      <trkpt lat="48.28903" lon="6.78528">
        <ele>517.81</ele>
        <time>2022-04-09T13:08:39Z</time>
      </trkpt>
      <trkpt lat="48.28901" lon="6.78528">
        <ele>517.81</ele>
        <time>2022-04-09T13:08:40Z</time>
      </trkpt>
      <trkpt lat="48.28898" lon="6.78528">
        <ele>518.29</ele>
        <time>2022-04-09T13:08:41Z</time>
      </trkpt>
      <trkpt lat="48.28894" lon="6.78528">
        <ele>518.29</ele>
        <time>2022-04-09T13:08:42Z</time>
      </trkpt>
      <trkpt lat="48.28891" lon="6.78528">
        <ele>518.77</ele>
        <time>2022-04-09T13:08:43Z</time>
      </trkpt>
      <trkpt lat="48.2886" lon="6.78516">
        <ele>519.73</ele>
        <time>2022-04-09T13:08:52Z</time>
      </trkpt>
      <trkpt lat="48.28825" lon="6.78478">
        <ele>521.65</ele>
        <time>2022-04-09T13:09:04Z</time>
      </trkpt>
      <trkpt lat="48.2882" lon="6.78459">
        <ele>522.61</ele>
        <time>2022-04-09T13:09:11Z</time>
      </trkpt>
      <trkpt lat="48.28821" lon="6.78452">
        <ele>523.09</ele>
        <time>2022-04-09T13:09:14Z</time>
      </trkpt>
      <trkpt lat="48.28822" lon="6.78443">
        <ele>523.09</ele>
        <time>2022-04-09T13:09:17Z</time>
      </trkpt>
      <trkpt lat="48.28823" lon="6.78441">
        <ele>523.09</ele>
        <time>2022-04-09T13:09:18Z</time>
      </trkpt>
      <trkpt lat="48.28823" lon="6.78438">
        <ele>523.09</ele>
        <time>2022-04-09T13:09:19Z</time>
      </trkpt>
      <trkpt lat="48.28826" lon="6.78404">
        <ele>524.54</ele>
        <time>2022-04-09T13:09:28Z</time>
      </trkpt>
      <trkpt lat="48.28825" lon="6.7836">
        <ele>525.5</ele>
        <time>2022-04-09T13:09:38Z</time>
      </trkpt>
      <trkpt lat="48.28817" lon="6.78316">
        <ele>526.94</ele>
        <time>2022-04-09T13:09:49Z</time>
      </trkpt>
      <trkpt lat="48.28816" lon="6.78312">
        <ele>527.42</ele>
        <time>2022-04-09T13:09:50Z</time>
      </trkpt>
      <trkpt lat="48.28813" lon="6.78291">
        <ele>527.42</ele>
        <time>2022-04-09T13:10:00Z</time>
      </trkpt>
      <trkpt lat="48.28813" lon="6.78286">
        <ele>527.9</ele>
        <time>2022-04-09T13:10:13Z</time>
      </trkpt>
      <trkpt lat="48.28814" lon="6.78283">
        <ele>527.9</ele>
        <time>2022-04-09T13:10:17Z</time>
      </trkpt>
    </trkseg>
  </trk>
</gpx>